<?xml version="1.0" encoding="UTF-8" standalone="no" ?>
<gpx xmlns="http://www.topografix.com/GPX/1/1" xmlns:xsi="http://www.w3.org/2001/XMLSchema-instance" xsi:schemaLocation="http://www.topografix.com/GPX/1/1 http://www.topografix.com/GPX/1/1/gpx.xsd" version="1.1" creator="VisuGPX - https://www.visugpx.com">
  <metadata>
    <name>Maratrail Haute Côte de Beaune</name>
  </metadata>
  <trk>
    <name><![CDATA[Marat'trail Haute Côte de Beaune]]></name>
    <extensions>
      <line xmlns="http://www.topografix.com/GPX/gpx_style/0/2">
        <color>0000FF</color>
        <width>4</width>
      </line>
    </extensions>
    <trkseg>
      <trkpt lat="46.98807" lon="4.73712">
        <ele>265.572878</ele>
        <time>2022-05-26T13:33:27.167Z</time>
      </trkpt>
      <trkpt lat="46.98805" lon="4.73674">
        <ele>265.572878</ele>
        <time>2022-05-26T13:33:53.624Z</time>
      </trkpt>
      <trkpt lat="46.98733" lon="4.73656">
        <ele>265.637146</ele>
        <time>2022-05-26T13:35:09.271Z</time>
      </trkpt>
      <trkpt lat="46.98725" lon="4.73654">
        <ele>265.688396</ele>
        <time>2022-05-26T13:35:16.905Z</time>
      </trkpt>
      <trkpt lat="46.98717" lon="4.73652">
        <ele>265.74738</ele>
        <time>2022-05-26T13:35:25.700Z</time>
      </trkpt>
      <trkpt lat="46.98707" lon="4.73654">
        <ele>265.815594</ele>
        <time>2022-05-26T13:35:35.765Z</time>
      </trkpt>
      <trkpt lat="46.98685" lon="4.7366">
        <ele>265.975071</ele>
        <time>2022-05-26T13:35:59.408Z</time>
      </trkpt>
      <trkpt lat="46.98649" lon="4.73655">
        <ele>266.225315</ele>
        <time>2022-05-26T13:36:35.836Z</time>
      </trkpt>
      <trkpt lat="46.9858" lon="4.73648">
        <ele>266.698686</ele>
        <time>2022-05-26T13:37:48.875Z</time>
      </trkpt>
      <trkpt lat="46.98541" lon="4.73629">
        <ele>267.743806</ele>
        <time>2022-05-26T13:38:34.475Z</time>
      </trkpt>
      <trkpt lat="46.98517" lon="4.73628">
        <ele>268.630609</ele>
        <time>2022-05-26T13:39:00.815Z</time>
      </trkpt>
      <trkpt lat="46.98491" lon="4.73621">
        <ele>269.653687</ele>
        <time>2022-05-26T13:39:31.761Z</time>
      </trkpt>
      <trkpt lat="46.98406" lon="4.73633">
        <ele>272.859498</ele>
        <time>2022-05-26T13:41:08.783Z</time>
      </trkpt>
      <trkpt lat="46.98358" lon="4.73651">
        <ele>274.133761</ele>
        <time>2022-05-26T13:42:07.949Z</time>
      </trkpt>
      <trkpt lat="46.98314" lon="4.73686">
        <ele>274.981234</ele>
        <time>2022-05-26T13:43:02.645Z</time>
      </trkpt>
      <trkpt lat="46.9823" lon="4.73696">
        <ele>276.409596</ele>
        <time>2022-05-26T13:44:28.962Z</time>
      </trkpt>
      <trkpt lat="46.98254" lon="4.73795">
        <ele>275.62162</ele>
        <time>2022-05-26T13:45:42.382Z</time>
      </trkpt>
      <trkpt lat="46.98285" lon="4.73842">
        <ele>274.784475</ele>
        <time>2022-05-26T13:46:28.881Z</time>
      </trkpt>
      <trkpt lat="46.98329" lon="4.73902">
        <ele>273.659757</ele>
        <time>2022-05-26T13:47:32.359Z</time>
      </trkpt>
      <trkpt lat="46.98375" lon="4.7399">
        <ele>272.00439</ele>
        <time>2022-05-26T13:48:52.777Z</time>
      </trkpt>
      <trkpt lat="46.98406" lon="4.74137">
        <ele>269.605817</ele>
        <time>2022-05-26T13:50:41.890Z</time>
      </trkpt>
      <trkpt lat="46.98436" lon="4.74254">
        <ele>268.226867</ele>
        <time>2022-05-26T13:52:10.996Z</time>
      </trkpt>
      <trkpt lat="46.98438" lon="4.74389">
        <ele>266.903306</ele>
        <time>2022-05-26T13:53:47.605Z</time>
      </trkpt>
      <trkpt lat="46.98447" lon="4.74484">
        <ele>269.188727</ele>
        <time>2022-05-26T13:54:54.346Z</time>
      </trkpt>
      <trkpt lat="46.98471" lon="4.74536">
        <ele>271.653121</ele>
        <time>2022-05-26T13:55:44.058Z</time>
      </trkpt>
      <trkpt lat="46.9848" lon="4.74578">
        <ele>273.378294</ele>
        <time>2022-05-26T13:56:19.419Z</time>
      </trkpt>
      <trkpt lat="46.98486" lon="4.74619">
        <ele>275.033522</ele>
        <time>2022-05-26T13:56:54.470Z</time>
      </trkpt>
      <trkpt lat="46.98475" lon="4.74607">
        <ele>275.863475</ele>
        <time>2022-05-26T13:57:14.133Z</time>
      </trkpt>
      <trkpt lat="46.98435" lon="4.74586">
        <ele>281.676601</ele>
        <time>2022-05-26T13:58:12.444Z</time>
      </trkpt>
      <trkpt lat="46.98373" lon="4.74486">
        <ele>300.007244</ele>
        <time>2022-05-26T14:01:16.290Z</time>
      </trkpt>
      <trkpt lat="46.98346" lon="4.74458">
        <ele>306.558763</ele>
        <time>2022-05-26T14:02:33.200Z</time>
      </trkpt>
      <trkpt lat="46.98333" lon="4.74439">
        <ele>310.217614</ele>
        <time>2022-05-26T14:03:16.336Z</time>
      </trkpt>
      <trkpt lat="46.98323" lon="4.74454">
        <ele>313.024614</ele>
        <time>2022-05-26T14:03:30.832Z</time>
      </trkpt>
      <trkpt lat="46.98252" lon="4.74441">
        <ele>325.660422</ele>
        <time>2022-05-26T14:04:44.419Z</time>
      </trkpt>
      <trkpt lat="46.98221" lon="4.74557">
        <ele>340.471875</ele>
        <time>2022-05-26T14:06:09.855Z</time>
      </trkpt>
      <trkpt lat="46.98212" lon="4.7464">
        <ele>346.356752</ele>
        <time>2022-05-26T14:07:07.681Z</time>
      </trkpt>
      <trkpt lat="46.98204" lon="4.74723">
        <ele>349.598925</ele>
        <time>2022-05-26T14:08:05.267Z</time>
      </trkpt>
      <trkpt lat="46.98202" lon="4.74732">
        <ele>349.937448</ele>
        <time>2022-05-26T14:08:11.267Z</time>
      </trkpt>
      <trkpt lat="46.98195" lon="4.74729">
        <ele>350.345311</ele>
        <time>2022-05-26T14:08:23.127Z</time>
      </trkpt>
      <trkpt lat="46.98125" lon="4.74751">
        <ele>354.392606</ele>
        <time>2022-05-26T14:09:40.985Z</time>
      </trkpt>
      <trkpt lat="46.98057" lon="4.74761">
        <ele>358.175291</ele>
        <time>2022-05-26T14:11:01.543Z</time>
      </trkpt>
      <trkpt lat="46.98025" lon="4.74793">
        <ele>360.313348</ele>
        <time>2022-05-26T14:11:52.336Z</time>
      </trkpt>
      <trkpt lat="46.97977" lon="4.7478">
        <ele>363.031176</ele>
        <time>2022-05-26T14:12:52.196Z</time>
      </trkpt>
      <trkpt lat="46.979" lon="4.7479">
        <ele>365.884822</ele>
        <time>2022-05-26T14:14:17.920Z</time>
      </trkpt>
      <trkpt lat="46.97907" lon="4.74771">
        <ele>366.305734</ele>
        <time>2022-05-26T14:14:34.826Z</time>
      </trkpt>
      <trkpt lat="46.97918" lon="4.7476">
        <ele>366.679931</ele>
        <time>2022-05-26T14:14:49.174Z</time>
      </trkpt>
      <trkpt lat="46.97907" lon="4.74771">
        <ele>367.054128</ele>
        <time>2022-05-26T14:15:04.015Z</time>
      </trkpt>
      <trkpt lat="46.979" lon="4.7479">
        <ele>367.47504</ele>
        <time>2022-05-26T14:15:20.443Z</time>
      </trkpt>
      <trkpt lat="46.97853" lon="4.74858">
        <ele>369.307106</ele>
        <time>2022-05-26T14:16:30.808Z</time>
      </trkpt>
      <trkpt lat="46.97841" lon="4.74868">
        <ele>369.732017</ele>
        <time>2022-05-26T14:16:45.631Z</time>
      </trkpt>
      <trkpt lat="46.97831" lon="4.74872">
        <ele>370.067899</ele>
        <time>2022-05-26T14:16:57.068Z</time>
      </trkpt>
      <trkpt lat="46.97797" lon="4.74869">
        <ele>371.144144</ele>
        <time>2022-05-26T14:17:33.155Z</time>
      </trkpt>
      <trkpt lat="46.97762" lon="4.74848">
        <ele>372.357267</ele>
        <time>2022-05-26T14:18:13.961Z</time>
      </trkpt>
      <trkpt lat="46.97716" lon="4.74835">
        <ele>373.847094</ele>
        <time>2022-05-26T14:19:06.075Z</time>
      </trkpt>
      <trkpt lat="46.9767" lon="4.74814">
        <ele>375.540533</ele>
        <time>2022-05-26T14:20:03.009Z</time>
      </trkpt>
      <trkpt lat="46.97629" lon="4.74808">
        <ele>378.038053</ele>
        <time>2022-05-26T14:20:51.778Z</time>
      </trkpt>
      <trkpt lat="46.97543" lon="4.74813">
        <ele>383.272939</ele>
        <time>2022-05-26T14:22:37.206Z</time>
      </trkpt>
      <trkpt lat="46.97513" lon="4.74796">
        <ele>385.204506</ele>
        <time>2022-05-26T14:23:16.771Z</time>
      </trkpt>
      <trkpt lat="46.97478" lon="4.74758">
        <ele>387.622369</ele>
        <time>2022-05-26T14:24:10.067Z</time>
      </trkpt>
      <trkpt lat="46.97412" lon="4.74744">
        <ele>391.104047</ele>
        <time>2022-05-26T14:25:31.214Z</time>
      </trkpt>
      <trkpt lat="46.97302" lon="4.74749">
        <ele>396.033431</ele>
        <time>2022-05-26T14:27:37.300Z</time>
      </trkpt>
      <trkpt lat="46.97235" lon="4.74725">
        <ele>397.503422</ele>
        <time>2022-05-26T14:28:50.660Z</time>
      </trkpt>
      <trkpt lat="46.97201" lon="4.74682">
        <ele>398.452336</ele>
        <time>2022-05-26T14:29:37.569Z</time>
      </trkpt>
      <trkpt lat="46.97179" lon="4.74638">
        <ele>399.235359</ele>
        <time>2022-05-26T14:30:16.645Z</time>
      </trkpt>
      <trkpt lat="46.97155" lon="4.74573">
        <ele>400.561033</ele>
        <time>2022-05-26T14:31:10.278Z</time>
      </trkpt>
      <trkpt lat="46.97124" lon="4.74462">
        <ele>402.730455</ele>
        <time>2022-05-26T14:32:39.204Z</time>
      </trkpt>
      <trkpt lat="46.9711" lon="4.74372">
        <ele>404.592649</ele>
        <time>2022-05-26T14:33:50.283Z</time>
      </trkpt>
      <trkpt lat="46.97079" lon="4.74309">
        <ele>406.873344</ele>
        <time>2022-05-26T14:34:52.140Z</time>
      </trkpt>
      <trkpt lat="46.97074" lon="4.74253">
        <ele>408.53011</ele>
        <time>2022-05-26T14:35:36.849Z</time>
      </trkpt>
      <trkpt lat="46.97074" lon="4.74232">
        <ele>409.142464</ele>
        <time>2022-05-26T14:35:53.397Z</time>
      </trkpt>
      <trkpt lat="46.97055" lon="4.74193">
        <ele>410.531058</ele>
        <time>2022-05-26T14:36:30.753Z</time>
      </trkpt>
      <trkpt lat="46.9688" lon="4.74058">
        <ele>418.903351</ele>
        <time>2022-05-26T14:40:18.604Z</time>
      </trkpt>
      <trkpt lat="46.96851" lon="4.74025">
        <ele>420.195147</ele>
        <time>2022-05-26T14:41:00.423Z</time>
      </trkpt>
      <trkpt lat="46.96832" lon="4.74012">
        <ele>420.834643</ele>
        <time>2022-05-26T14:41:23.252Z</time>
      </trkpt>
      <trkpt lat="46.96801" lon="4.73972">
        <ele>422.143486</ele>
        <time>2022-05-26T14:42:10.117Z</time>
      </trkpt>
      <trkpt lat="46.96787" lon="4.73961">
        <ele>422.650729</ele>
        <time>2022-05-26T14:42:27.979Z</time>
      </trkpt>
      <trkpt lat="46.96755" lon="4.73904">
        <ele>424.250245</ele>
        <time>2022-05-26T14:43:23.934Z</time>
      </trkpt>
      <trkpt lat="46.96737" lon="4.73881">
        <ele>424.990823</ele>
        <time>2022-05-26T14:43:49.268Z</time>
      </trkpt>
      <trkpt lat="46.96739" lon="4.73874">
        <ele>425.060835</ele>
        <time>2022-05-26T14:43:54.907Z</time>
      </trkpt>
      <trkpt lat="46.9673" lon="4.73861">
        <ele>425.125251</ele>
        <time>2022-05-26T14:44:07.981Z</time>
      </trkpt>
      <trkpt lat="46.96696" lon="4.73869">
        <ele>425.309096</ele>
        <time>2022-05-26T14:44:44.565Z</time>
      </trkpt>
      <trkpt lat="46.9666" lon="4.73868">
        <ele>425.501617</ele>
        <time>2022-05-26T14:45:22.689Z</time>
      </trkpt>
      <trkpt lat="46.96641" lon="4.73862">
        <ele>425.605421</ele>
        <time>2022-05-26T14:45:42.602Z</time>
      </trkpt>
      <trkpt lat="46.96503" lon="4.73861">
        <ele>424.89821</ele>
        <time>2022-05-26T14:48:03.325Z</time>
      </trkpt>
      <trkpt lat="46.96488" lon="4.73857">
        <ele>424.638907</ele>
        <time>2022-05-26T14:48:19.417Z</time>
      </trkpt>
      <trkpt lat="46.96484" lon="4.73854">
        <ele>424.57047</ele>
        <time>2022-05-26T14:48:23.597Z</time>
      </trkpt>
      <trkpt lat="46.96459" lon="4.7381">
        <ele>423.894172</ele>
        <time>2022-05-26T14:49:04.923Z</time>
      </trkpt>
      <trkpt lat="46.96438" lon="4.73786">
        <ele>423.437375</ele>
        <time>2022-05-26T14:49:32.789Z</time>
      </trkpt>
      <trkpt lat="46.96348" lon="4.73698">
        <ele>422.329358</ele>
        <time>2022-05-26T14:51:24.953Z</time>
      </trkpt>
      <trkpt lat="46.96342" lon="4.73676">
        <ele>422.210678</ele>
        <time>2022-05-26T14:51:40.947Z</time>
      </trkpt>
      <trkpt lat="46.96327" lon="4.73655">
        <ele>422.053486</ele>
        <time>2022-05-26T14:52:01.984Z</time>
      </trkpt>
      <trkpt lat="46.96304" lon="4.73644">
        <ele>421.871325</ele>
        <time>2022-05-26T14:52:26.334Z</time>
      </trkpt>
      <trkpt lat="46.96294" lon="4.73626">
        <ele>421.752754</ele>
        <time>2022-05-26T14:52:42.223Z</time>
      </trkpt>
      <trkpt lat="46.9627" lon="4.73605">
        <ele>421.504284</ele>
        <time>2022-05-26T14:53:10.715Z</time>
      </trkpt>
      <trkpt lat="46.96219" lon="4.73574">
        <ele>420.481193</ele>
        <time>2022-05-26T14:54:05.489Z</time>
      </trkpt>
      <trkpt lat="46.96177" lon="4.73537">
        <ele>419.552266</ele>
        <time>2022-05-26T14:54:57.225Z</time>
      </trkpt>
      <trkpt lat="46.96151" lon="4.73507">
        <ele>418.928453</ele>
        <time>2022-05-26T14:55:32.923Z</time>
      </trkpt>
      <trkpt lat="46.9613" lon="4.73502">
        <ele>418.533758</ele>
        <time>2022-05-26T14:55:55.407Z</time>
      </trkpt>
      <trkpt lat="46.96089" lon="4.73512">
        <ele>417.590883</ele>
        <time>2022-05-26T14:56:39.530Z</time>
      </trkpt>
      <trkpt lat="46.9607" lon="4.73459">
        <ele>416.539941</ele>
        <time>2022-05-26T14:57:22.807Z</time>
      </trkpt>
      <trkpt lat="46.96057" lon="4.73446">
        <ele>416.124277</ele>
        <time>2022-05-26T14:57:40.127Z</time>
      </trkpt>
      <trkpt lat="46.96048" lon="4.73452">
        <ele>415.871902</ele>
        <time>2022-05-26T14:57:50.137Z</time>
      </trkpt>
      <trkpt lat="46.96028" lon="4.73433">
        <ele>415.250438</ele>
        <time>2022-05-26T14:58:15.958Z</time>
      </trkpt>
      <trkpt lat="46.95999" lon="4.73409">
        <ele>414.379658</ele>
        <time>2022-05-26T14:58:51.069Z</time>
      </trkpt>
      <trkpt lat="46.95977" lon="4.73374">
        <ele>413.537127</ele>
        <time>2022-05-26T14:59:24.894Z</time>
      </trkpt>
      <trkpt lat="46.95918" lon="4.73331">
        <ele>413.163899</ele>
        <time>2022-05-26T15:00:31.017Z</time>
      </trkpt>
      <trkpt lat="46.95903" lon="4.73309">
        <ele>413.039528</ele>
        <time>2022-05-26T15:00:53.095Z</time>
      </trkpt>
      <trkpt lat="46.95882" lon="4.73296">
        <ele>412.912751</ele>
        <time>2022-05-26T15:01:16.153Z</time>
      </trkpt>
      <trkpt lat="46.95838" lon="4.73303">
        <ele>412.660614</ele>
        <time>2022-05-26T15:02:00.937Z</time>
      </trkpt>
      <trkpt lat="46.95813" lon="4.7329">
        <ele>412.504634</ele>
        <time>2022-05-26T15:02:28.380Z</time>
      </trkpt>
      <trkpt lat="46.95803" lon="4.73298">
        <ele>412.400955</ele>
        <time>2022-05-26T15:02:39.462Z</time>
      </trkpt>
      <trkpt lat="46.95785" lon="4.73292">
        <ele>412.217877</ele>
        <time>2022-05-26T15:02:59.071Z</time>
      </trkpt>
      <trkpt lat="46.9576" lon="4.73285">
        <ele>411.976183</ele>
        <time>2022-05-26T15:03:24.863Z</time>
      </trkpt>
      <trkpt lat="46.95711" lon="4.73258">
        <ele>411.477574</ele>
        <time>2022-05-26T15:04:18.417Z</time>
      </trkpt>
      <trkpt lat="46.95664" lon="4.73213">
        <ele>410.940952</ele>
        <time>2022-05-26T15:05:18.223Z</time>
      </trkpt>
      <trkpt lat="46.95618" lon="4.73182">
        <ele>411.789335</ele>
        <time>2022-05-26T15:06:12.824Z</time>
      </trkpt>
      <trkpt lat="46.95598" lon="4.73149">
        <ele>412.634022</ele>
        <time>2022-05-26T15:06:42.962Z</time>
      </trkpt>
      <trkpt lat="46.95594" lon="4.73128">
        <ele>413.043646</ele>
        <time>2022-05-26T15:07:03.917Z</time>
      </trkpt>
      <trkpt lat="46.95577" lon="4.73125">
        <ele>413.539189</ele>
        <time>2022-05-26T15:07:24.246Z</time>
      </trkpt>
      <trkpt lat="46.95594" lon="4.73128">
        <ele>414.034733</ele>
        <time>2022-05-26T15:07:51.831Z</time>
      </trkpt>
      <trkpt lat="46.95599" lon="4.731">
        <ele>414.596017</ele>
        <time>2022-05-26T15:08:13.526Z</time>
      </trkpt>
      <trkpt lat="46.95619" lon="4.73075">
        <ele>415.34509</ele>
        <time>2022-05-26T15:08:46.366Z</time>
      </trkpt>
      <trkpt lat="46.95632" lon="4.73034">
        <ele>416.318266</ele>
        <time>2022-05-26T15:09:24.390Z</time>
      </trkpt>
      <trkpt lat="46.95669" lon="4.7303">
        <ele>417.717968</ele>
        <time>2022-05-26T15:10:07.943Z</time>
      </trkpt>
      <trkpt lat="46.95715" lon="4.73008">
        <ele>419.51473</ele>
        <time>2022-05-26T15:11:06.739Z</time>
      </trkpt>
      <trkpt lat="46.95733" lon="4.72993">
        <ele>420.274883</ele>
        <time>2022-05-26T15:11:29.147Z</time>
      </trkpt>
      <trkpt lat="46.95752" lon="4.72989">
        <ele>421.005074</ele>
        <time>2022-05-26T15:11:49.802Z</time>
      </trkpt>
      <trkpt lat="46.95767" lon="4.72995">
        <ele>421.55783</ele>
        <time>2022-05-26T15:12:05.727Z</time>
      </trkpt>
      <trkpt lat="46.95806" lon="4.72995">
        <ele>422.311637</ele>
        <time>2022-05-26T15:12:46.614Z</time>
      </trkpt>
      <trkpt lat="46.95841" lon="4.72985">
        <ele>421.675364</ele>
        <time>2022-05-26T15:13:23.166Z</time>
      </trkpt>
      <trkpt lat="46.95904" lon="4.73003">
        <ele>420.52412</ele>
        <time>2022-05-26T15:14:29.336Z</time>
      </trkpt>
      <trkpt lat="46.95926" lon="4.72995">
        <ele>420.134536</ele>
        <time>2022-05-26T15:14:52.485Z</time>
      </trkpt>
      <trkpt lat="46.95933" lon="4.73004">
        <ele>419.959815</ele>
        <time>2022-05-26T15:15:02.965Z</time>
      </trkpt>
      <trkpt lat="46.95975" lon="4.73017">
        <ele>418.544176</ele>
        <time>2022-05-26T15:15:49.545Z</time>
      </trkpt>
      <trkpt lat="46.95981" lon="4.73008">
        <ele>417.655313</ele>
        <time>2022-05-26T15:15:59.159Z</time>
      </trkpt>
      <trkpt lat="46.96021" lon="4.7303">
        <ele>413.264369</ele>
        <time>2022-05-26T15:16:47.887Z</time>
      </trkpt>
      <trkpt lat="46.96027" lon="4.73026">
        <ele>412.576875</ele>
        <time>2022-05-26T15:16:55.678Z</time>
      </trkpt>
      <trkpt lat="46.96028" lon="4.73007">
        <ele>411.266949</ele>
        <time>2022-05-26T15:17:10.660Z</time>
      </trkpt>
      <trkpt lat="46.96034" lon="4.73">
        <ele>410.432123</ele>
        <time>2022-05-26T15:17:20.213Z</time>
      </trkpt>
      <trkpt lat="46.96046" lon="4.72932">
        <ele>405.519312</ele>
        <time>2022-05-26T15:18:16.687Z</time>
      </trkpt>
      <trkpt lat="46.96045" lon="4.72897">
        <ele>403.028882</ele>
        <time>2022-05-26T15:18:47.821Z</time>
      </trkpt>
      <trkpt lat="46.96066" lon="4.72882">
        <ele>400.403528</ele>
        <time>2022-05-26T15:19:21.558Z</time>
      </trkpt>
      <trkpt lat="46.96077" lon="4.72833">
        <ele>393.890587</ele>
        <time>2022-05-26T15:20:10.475Z</time>
      </trkpt>
      <trkpt lat="46.96079" lon="4.72773">
        <ele>386.225172</ele>
        <time>2022-05-26T15:21:08.032Z</time>
      </trkpt>
      <trkpt lat="46.96088" lon="4.72736">
        <ele>381.342081</ele>
        <time>2022-05-26T15:21:46.173Z</time>
      </trkpt>
      <trkpt lat="46.96104" lon="4.72704">
        <ele>376.196809</ele>
        <time>2022-05-26T15:22:24.500Z</time>
      </trkpt>
      <trkpt lat="46.96104" lon="4.72693">
        <ele>374.894374</ele>
        <time>2022-05-26T15:22:36.877Z</time>
      </trkpt>
      <trkpt lat="46.96053" lon="4.72627">
        <ele>362.338581</ele>
        <time>2022-05-26T15:24:12.717Z</time>
      </trkpt>
      <trkpt lat="46.95889" lon="4.7252">
        <ele>330.908054</ele>
        <time>2022-05-26T15:28:15.747Z</time>
      </trkpt>
      <trkpt lat="46.95867" lon="4.72469">
        <ele>324.422951</ele>
        <time>2022-05-26T15:29:09.913Z</time>
      </trkpt>
      <trkpt lat="46.95842" lon="4.72456">
        <ele>320.366186</ele>
        <time>2022-05-26T15:29:44.219Z</time>
      </trkpt>
      <trkpt lat="46.95778" lon="4.72381">
        <ele>307.519555</ele>
        <time>2022-05-26T15:31:30.240Z</time>
      </trkpt>
      <trkpt lat="46.95759" lon="4.723">
        <ele>301.507146</ele>
        <time>2022-05-26T15:32:43.036Z</time>
      </trkpt>
      <trkpt lat="46.95746" lon="4.72278">
        <ele>299.416983</ele>
        <time>2022-05-26T15:33:07.328Z</time>
      </trkpt>
      <trkpt lat="46.95759" lon="4.723">
        <ele>297.32682</ele>
        <time>2022-05-26T15:33:30.903Z</time>
      </trkpt>
      <trkpt lat="46.95775" lon="4.72289">
        <ele>295.533281</ele>
        <time>2022-05-26T15:33:52.055Z</time>
      </trkpt>
      <trkpt lat="46.95782" lon="4.72277">
        <ele>294.485641</ele>
        <time>2022-05-26T15:34:04.009Z</time>
      </trkpt>
      <trkpt lat="46.95782" lon="4.72251">
        <ele>292.680586</ele>
        <time>2022-05-26T15:34:24.695Z</time>
      </trkpt>
      <trkpt lat="46.95781" lon="4.72242">
        <ele>292.050851</ele>
        <time>2022-05-26T15:34:32.453Z</time>
      </trkpt>
      <trkpt lat="46.95751" lon="4.722">
        <ele>288.281716</ele>
        <time>2022-05-26T15:35:20.876Z</time>
      </trkpt>
      <trkpt lat="46.9575" lon="4.72187">
        <ele>287.706242</ele>
        <time>2022-05-26T15:35:31.150Z</time>
      </trkpt>
      <trkpt lat="46.95754" lon="4.7218">
        <ele>287.341681</ele>
        <time>2022-05-26T15:35:37.358Z</time>
      </trkpt>
      <trkpt lat="46.95766" lon="4.72154">
        <ele>285.932409</ele>
        <time>2022-05-26T15:36:02.342Z</time>
      </trkpt>
      <trkpt lat="46.95765" lon="4.72142">
        <ele>285.381116</ele>
        <time>2022-05-26T15:36:11.873Z</time>
      </trkpt>
      <trkpt lat="46.95734" lon="4.72095">
        <ele>282.510357</ele>
        <time>2022-05-26T15:37:02.142Z</time>
      </trkpt>
      <trkpt lat="46.95706" lon="4.72076">
        <ele>280.501371</ele>
        <time>2022-05-26T15:37:37.020Z</time>
      </trkpt>
      <trkpt lat="46.9569" lon="4.7209">
        <ele>279.32749</ele>
        <time>2022-05-26T15:37:57.013Z</time>
      </trkpt>
      <trkpt lat="46.95662" lon="4.7209">
        <ele>277.493005</ele>
        <time>2022-05-26T15:38:28.658Z</time>
      </trkpt>
      <trkpt lat="46.95639" lon="4.7208">
        <ele>276.503319</ele>
        <time>2022-05-26T15:38:54.945Z</time>
      </trkpt>
      <trkpt lat="46.9558" lon="4.72">
        <ele>273.313311</ele>
        <time>2022-05-26T15:40:23.169Z</time>
      </trkpt>
      <trkpt lat="46.95534" lon="4.71885">
        <ele>270.26937</ele>
        <time>2022-05-26T15:42:00.247Z</time>
      </trkpt>
      <trkpt lat="46.95499" lon="4.71822">
        <ele>270.450191</ele>
        <time>2022-05-26T15:42:56.509Z</time>
      </trkpt>
      <trkpt lat="46.95341" lon="4.71574">
        <ele>273.49403</ele>
        <time>2022-05-26T15:47:02.982Z</time>
      </trkpt>
      <trkpt lat="46.95256" lon="4.71467">
        <ele>276.192421</ele>
        <time>2022-05-26T15:49:06.890Z</time>
      </trkpt>
      <trkpt lat="46.95213" lon="4.71425">
        <ele>277.574399</ele>
        <time>2022-05-26T15:50:04.255Z</time>
      </trkpt>
      <trkpt lat="46.9519" lon="4.71411">
        <ele>278.217467</ele>
        <time>2022-05-26T15:50:31.287Z</time>
      </trkpt>
      <trkpt lat="46.95184" lon="4.71401">
        <ele>278.448517</ele>
        <time>2022-05-26T15:50:40.577Z</time>
      </trkpt>
      <trkpt lat="46.9517" lon="4.71377">
        <ele>279.02202</ele>
        <time>2022-05-26T15:51:04.516Z</time>
      </trkpt>
      <trkpt lat="46.95139" lon="4.71299">
        <ele>280.683859</ele>
        <time>2022-05-26T15:52:11.267Z</time>
      </trkpt>
      <trkpt lat="46.95117" lon="4.71224">
        <ele>282.185795</ele>
        <time>2022-05-26T15:53:12.201Z</time>
      </trkpt>
      <trkpt lat="46.95082" lon="4.71087">
        <ele>285.469184</ele>
        <time>2022-05-26T15:55:00.301Z</time>
      </trkpt>
      <trkpt lat="46.95067" lon="4.71103">
        <ele>286.576943</ele>
        <time>2022-05-26T15:55:22.867Z</time>
      </trkpt>
      <trkpt lat="46.95028" lon="4.7118">
        <ele>290.473534</ele>
        <time>2022-05-26T15:56:42.115Z</time>
      </trkpt>
      <trkpt lat="46.95016" lon="4.71188">
        <ele>291.24629</ele>
        <time>2022-05-26T15:56:58.111Z</time>
      </trkpt>
      <trkpt lat="46.95007" lon="4.71195">
        <ele>291.827189</ele>
        <time>2022-05-26T15:57:09.992Z</time>
      </trkpt>
      <trkpt lat="46.94969" lon="4.71193">
        <ele>294.105216</ele>
        <time>2022-05-26T15:57:57.578Z</time>
      </trkpt>
      <trkpt lat="46.94961" lon="4.71209">
        <ele>294.888091</ele>
        <time>2022-05-26T15:58:14.056Z</time>
      </trkpt>
      <trkpt lat="46.94969" lon="4.71261">
        <ele>297.88225</ele>
        <time>2022-05-26T15:59:00.421Z</time>
      </trkpt>
      <trkpt lat="46.94974" lon="4.71299">
        <ele>300.151672</ele>
        <time>2022-05-26T15:59:35.164Z</time>
      </trkpt>
      <trkpt lat="46.94979" lon="4.71428">
        <ele>307.694789</ele>
        <time>2022-05-26T16:01:30.879Z</time>
      </trkpt>
      <trkpt lat="46.94977" lon="4.71443">
        <ele>308.596107</ele>
        <time>2022-05-26T16:01:43.843Z</time>
      </trkpt>
      <trkpt lat="46.94966" lon="4.71456">
        <ele>309.779833</ele>
        <time>2022-05-26T16:02:02.512Z</time>
      </trkpt>
      <trkpt lat="46.94874" lon="4.71373">
        <ele>318.298727</ele>
        <time>2022-05-26T16:04:18.159Z</time>
      </trkpt>
      <trkpt lat="46.94861" lon="4.7137">
        <ele>319.350237</ele>
        <time>2022-05-26T16:04:34.649Z</time>
      </trkpt>
      <trkpt lat="46.9485" lon="4.71379">
        <ele>320.338348</ele>
        <time>2022-05-26T16:04:50.849Z</time>
      </trkpt>
      <trkpt lat="46.94844" lon="4.714">
        <ele>321.566653</ele>
        <time>2022-05-26T16:05:11.906Z</time>
      </trkpt>
      <trkpt lat="46.94849" lon="4.71464">
        <ele>324.961261</ele>
        <time>2022-05-26T16:06:08.103Z</time>
      </trkpt>
      <trkpt lat="46.94901" lon="4.71642">
        <ele>333.496198</ele>
        <time>2022-05-26T16:08:50.191Z</time>
      </trkpt>
      <trkpt lat="46.94898" lon="4.71647">
        <ele>333.788203</ele>
        <time>2022-05-26T16:08:56.107Z</time>
      </trkpt>
      <trkpt lat="46.94885" lon="4.71636">
        <ele>334.757175</ele>
        <time>2022-05-26T16:09:13.605Z</time>
      </trkpt>
      <trkpt lat="46.94804" lon="4.71542">
        <ele>339.37907</ele>
        <time>2022-05-26T16:11:14.122Z</time>
      </trkpt>
      <trkpt lat="46.94768" lon="4.7152">
        <ele>340.938351</ele>
        <time>2022-05-26T16:11:58.532Z</time>
      </trkpt>
      <trkpt lat="46.94726" lon="4.71517">
        <ele>342.570885</ele>
        <time>2022-05-26T16:12:44.029Z</time>
      </trkpt>
      <trkpt lat="46.94697" lon="4.71531">
        <ele>343.65334</ele>
        <time>2022-05-26T16:13:18.013Z</time>
      </trkpt>
      <trkpt lat="46.94534" lon="4.71648">
        <ele>348.86937</ele>
        <time>2022-05-26T16:16:38.174Z</time>
      </trkpt>
      <trkpt lat="46.94499" lon="4.71679">
        <ele>349.871348</ele>
        <time>2022-05-26T16:17:22.807Z</time>
      </trkpt>
      <trkpt lat="46.94355" lon="4.71742">
        <ele>353.063624</ele>
        <time>2022-05-26T16:20:06.395Z</time>
      </trkpt>
      <trkpt lat="46.94215" lon="4.71883">
        <ele>353.574098</ele>
        <time>2022-05-26T16:22:58.856Z</time>
      </trkpt>
      <trkpt lat="46.94206" lon="4.71893">
        <ele>353.342333</ele>
        <time>2022-05-26T16:23:11.560Z</time>
      </trkpt>
      <trkpt lat="46.94123" lon="4.71926">
        <ele>351.655318</ele>
        <time>2022-05-26T16:24:41.590Z</time>
      </trkpt>
      <trkpt lat="46.9411" lon="4.71936">
        <ele>351.37179</ele>
        <time>2022-05-26T16:24:56.999Z</time>
      </trkpt>
      <trkpt lat="46.94089" lon="4.71954">
        <ele>350.896394</ele>
        <time>2022-05-26T16:25:22.587Z</time>
      </trkpt>
      <trkpt lat="46.94069" lon="4.71961">
        <ele>350.480301</ele>
        <time>2022-05-26T16:25:45.386Z</time>
      </trkpt>
      <trkpt lat="46.94034" lon="4.71984">
        <ele>350.601467</ele>
        <time>2022-05-26T16:26:24.422Z</time>
      </trkpt>
      <trkpt lat="46.94022" lon="4.71988">
        <ele>350.703283</ele>
        <time>2022-05-26T16:26:37.288Z</time>
      </trkpt>
      <trkpt lat="46.9402" lon="4.71973">
        <ele>350.784723</ele>
        <time>2022-05-26T16:26:47.360Z</time>
      </trkpt>
      <trkpt lat="46.93938" lon="4.71949">
        <ele>351.461309</ele>
        <time>2022-05-26T16:28:10.780Z</time>
      </trkpt>
      <trkpt lat="46.93866" lon="4.71901">
        <ele>353.039497</ele>
        <time>2022-05-26T16:29:30.080Z</time>
      </trkpt>
      <trkpt lat="46.93794" lon="4.71854">
        <ele>355.715368</ele>
        <time>2022-05-26T16:30:49.381Z</time>
      </trkpt>
      <trkpt lat="46.93725" lon="4.71834">
        <ele>358.070178</ele>
        <time>2022-05-26T16:31:59.525Z</time>
      </trkpt>
      <trkpt lat="46.93656" lon="4.71814">
        <ele>360.295166</ele>
        <time>2022-05-26T16:33:09.659Z</time>
      </trkpt>
      <trkpt lat="46.93588" lon="4.71794">
        <ele>362.522849</ele>
        <time>2022-05-26T16:34:19.792Z</time>
      </trkpt>
      <trkpt lat="46.93519" lon="4.71774">
        <ele>364.937753</ele>
        <time>2022-05-26T16:35:29.948Z</time>
      </trkpt>
      <trkpt lat="46.93442" lon="4.71724">
        <ele>368.057584</ele>
        <time>2022-05-26T16:36:54.347Z</time>
      </trkpt>
      <trkpt lat="46.93365" lon="4.71675">
        <ele>370.754487</ele>
        <time>2022-05-26T16:38:18.713Z</time>
      </trkpt>
      <trkpt lat="46.93288" lon="4.71625">
        <ele>372.427375</ele>
        <time>2022-05-26T16:39:43.058Z</time>
      </trkpt>
      <trkpt lat="46.93235" lon="4.71574">
        <ele>373.682558</ele>
        <time>2022-05-26T16:40:46.342Z</time>
      </trkpt>
      <trkpt lat="46.93182" lon="4.71523">
        <ele>372.254574</ele>
        <time>2022-05-26T16:41:49.621Z</time>
      </trkpt>
      <trkpt lat="46.93139" lon="4.71462">
        <ele>370.549866</ele>
        <time>2022-05-26T16:42:49.820Z</time>
      </trkpt>
      <trkpt lat="46.93095" lon="4.71401">
        <ele>368.841764</ele>
        <time>2022-05-26T16:43:50.078Z</time>
      </trkpt>
      <trkpt lat="46.93079" lon="4.71413">
        <ele>366.842151</ele>
        <time>2022-05-26T16:44:08.153Z</time>
      </trkpt>
      <trkpt lat="46.93118" lon="4.71519">
        <ele>355.897547</ele>
        <time>2022-05-26T16:45:49.000Z</time>
      </trkpt>
      <trkpt lat="46.93136" lon="4.71626">
        <ele>345.875837</ele>
        <time>2022-05-26T16:47:26.793Z</time>
      </trkpt>
      <trkpt lat="46.93138" lon="4.717">
        <ele>337.338919</ele>
        <time>2022-05-26T16:48:40.152Z</time>
      </trkpt>
      <trkpt lat="46.93134" lon="4.71725">
        <ele>334.227917</ele>
        <time>2022-05-26T16:49:05.437Z</time>
      </trkpt>
      <trkpt lat="46.93138" lon="4.71773">
        <ele>328.526812</ele>
        <time>2022-05-26T16:49:49.938Z</time>
      </trkpt>
      <trkpt lat="46.93159" lon="4.71836">
        <ele>320.0481</ele>
        <time>2022-05-26T16:50:54.708Z</time>
      </trkpt>
      <trkpt lat="46.93178" lon="4.71858">
        <ele>315.879952</ele>
        <time>2022-05-26T16:51:25.450Z</time>
      </trkpt>
      <trkpt lat="46.93186" lon="4.71868">
        <ele>314.086503</ele>
        <time>2022-05-26T16:51:40.486Z</time>
      </trkpt>
      <trkpt lat="46.93237" lon="4.72008">
        <ele>299.450478</ele>
        <time>2022-05-26T16:54:00.426Z</time>
      </trkpt>
      <trkpt lat="46.93269" lon="4.7208">
        <ele>291.603959</ele>
        <time>2022-05-26T16:55:13.244Z</time>
      </trkpt>
      <trkpt lat="46.93277" lon="4.72096">
        <ele>289.839641</ele>
        <time>2022-05-26T16:55:28.640Z</time>
      </trkpt>
      <trkpt lat="46.93289" lon="4.72106">
        <ele>288.697622</ele>
        <time>2022-05-26T16:55:45.128Z</time>
      </trkpt>
      <trkpt lat="46.93341" lon="4.72139">
        <ele>285.81127</ele>
        <time>2022-05-26T16:56:50.608Z</time>
      </trkpt>
      <trkpt lat="46.93313" lon="4.72141">
        <ele>284.351958</ele>
        <time>2022-05-26T16:57:23.288Z</time>
      </trkpt>
      <trkpt lat="46.93271" lon="4.72126">
        <ele>282.189915</ele>
        <time>2022-05-26T16:58:09.639Z</time>
      </trkpt>
      <trkpt lat="46.93215" lon="4.72088">
        <ele>280.139589</ele>
        <time>2022-05-26T16:59:11.803Z</time>
      </trkpt>
      <trkpt lat="46.93137" lon="4.72051">
        <ele>280.377121</ele>
        <time>2022-05-26T17:00:35.608Z</time>
      </trkpt>
      <trkpt lat="46.93087" lon="4.72011">
        <ele>280.540062</ele>
        <time>2022-05-26T17:01:34.157Z</time>
      </trkpt>
      <trkpt lat="46.93058" lon="4.71981">
        <ele>280.593483</ele>
        <time>2022-05-26T17:02:10.839Z</time>
      </trkpt>
      <trkpt lat="46.93" lon="4.71894">
        <ele>280.547893</ele>
        <time>2022-05-26T17:03:36.298Z</time>
      </trkpt>
      <trkpt lat="46.92982" lon="4.7188">
        <ele>280.536771</ele>
        <time>2022-05-26T17:03:57.247Z</time>
      </trkpt>
      <trkpt lat="46.92954" lon="4.7187">
        <ele>280.521188</ele>
        <time>2022-05-26T17:04:25.965Z</time>
      </trkpt>
      <trkpt lat="46.9293" lon="4.71841">
        <ele>280.503983</ele>
        <time>2022-05-26T17:04:58.478Z</time>
      </trkpt>
      <trkpt lat="46.92913" lon="4.71803">
        <ele>279.692414</ele>
        <time>2022-05-26T17:05:31.153Z</time>
      </trkpt>
      <trkpt lat="46.92898" lon="4.71778">
        <ele>279.046934</ele>
        <time>2022-05-26T17:05:55.387Z</time>
      </trkpt>
      <trkpt lat="46.9289" lon="4.71774">
        <ele>278.821376</ele>
        <time>2022-05-26T17:06:03.873Z</time>
      </trkpt>
      <trkpt lat="46.92882" lon="4.71759">
        <ele>278.45318</ele>
        <time>2022-05-26T17:06:17.399Z</time>
      </trkpt>
      <trkpt lat="46.9289" lon="4.71774">
        <ele>278.084983</ele>
        <time>2022-05-26T17:06:31.141Z</time>
      </trkpt>
      <trkpt lat="46.92909" lon="4.71837">
        <ele>276.764832</ele>
        <time>2022-05-26T17:07:20.360Z</time>
      </trkpt>
      <trkpt lat="46.9294" lon="4.71913">
        <ele>274.620854</ele>
        <time>2022-05-26T17:08:25.556Z</time>
      </trkpt>
      <trkpt lat="46.92976" lon="4.71941">
        <ele>272.119858</ele>
        <time>2022-05-26T17:09:11.629Z</time>
      </trkpt>
      <trkpt lat="46.92994" lon="4.71954">
        <ele>270.940734</ele>
        <time>2022-05-26T17:09:33.733Z</time>
      </trkpt>
      <trkpt lat="46.9302" lon="4.72004">
        <ele>268.344824</ele>
        <time>2022-05-26T17:10:22.320Z</time>
      </trkpt>
      <trkpt lat="46.93028" lon="4.72052">
        <ele>266.295555</ele>
        <time>2022-05-26T17:11:00.428Z</time>
      </trkpt>
      <trkpt lat="46.93053" lon="4.72127">
        <ele>262.38538</ele>
        <time>2022-05-26T17:12:05.232Z</time>
      </trkpt>
      <trkpt lat="46.93069" lon="4.72164">
        <ele>260.119758</ele>
        <time>2022-05-26T17:12:39.781Z</time>
      </trkpt>
      <trkpt lat="46.93085" lon="4.72196">
        <ele>258.021992</ele>
        <time>2022-05-26T17:13:11.977Z</time>
      </trkpt>
      <trkpt lat="46.93104" lon="4.72229">
        <ele>255.800366</ele>
        <time>2022-05-26T17:13:46.305Z</time>
      </trkpt>
      <trkpt lat="46.93116" lon="4.72247">
        <ele>254.436754</ele>
        <time>2022-05-26T17:14:06.843Z</time>
      </trkpt>
      <trkpt lat="46.93108" lon="4.72335">
        <ele>250.181677</ele>
        <time>2022-05-26T17:15:16.684Z</time>
      </trkpt>
      <trkpt lat="46.93112" lon="4.72392">
        <ele>248.429242</ele>
        <time>2022-05-26T17:16:00.048Z</time>
      </trkpt>
      <trkpt lat="46.93097" lon="4.72424">
        <ele>247.232844</ele>
        <time>2022-05-26T17:16:29.265Z</time>
      </trkpt>
      <trkpt lat="46.93084" lon="4.72488">
        <ele>245.186264</ele>
        <time>2022-05-26T17:17:18.352Z</time>
      </trkpt>
      <trkpt lat="46.93058" lon="4.72536">
        <ele>243.26625</ele>
        <time>2022-05-26T17:18:03.630Z</time>
      </trkpt>
      <trkpt lat="46.9301" lon="4.72512">
        <ele>241.904255</ele>
        <time>2022-05-26T17:18:56.054Z</time>
      </trkpt>
      <trkpt lat="46.92968" lon="4.72498">
        <ele>241.050373</ele>
        <time>2022-05-26T17:19:40.176Z</time>
      </trkpt>
      <trkpt lat="46.92864" lon="4.72451">
        <ele>238.794504</ele>
        <time>2022-05-26T17:21:34.127Z</time>
      </trkpt>
      <trkpt lat="46.92829" lon="4.72431">
        <ele>237.810175</ele>
        <time>2022-05-26T17:22:12.382Z</time>
      </trkpt>
      <trkpt lat="46.92774" lon="4.72398">
        <ele>236.196688</ele>
        <time>2022-05-26T17:23:15.734Z</time>
      </trkpt>
      <trkpt lat="46.9273" lon="4.72381">
        <ele>234.960305</ele>
        <time>2022-05-26T17:24:04.603Z</time>
      </trkpt>
      <trkpt lat="46.92724" lon="4.72373">
        <ele>234.747367</ele>
        <time>2022-05-26T17:24:13.100Z</time>
      </trkpt>
      <trkpt lat="46.92706" lon="4.72365">
        <ele>234.240209</ele>
        <time>2022-05-26T17:24:33.028Z</time>
      </trkpt>
      <trkpt lat="46.92699" lon="4.72376">
        <ele>233.942293</ele>
        <time>2022-05-26T17:24:43.652Z</time>
      </trkpt>
      <trkpt lat="46.92686" lon="4.72374">
        <ele>233.514856</ele>
        <time>2022-05-26T17:24:58.442Z</time>
      </trkpt>
      <trkpt lat="46.92643" lon="4.7237">
        <ele>232.198736</ele>
        <time>2022-05-26T17:25:43.844Z</time>
      </trkpt>
      <trkpt lat="46.92625" lon="4.72361">
        <ele>231.60941</ele>
        <time>2022-05-26T17:26:04.406Z</time>
      </trkpt>
      <trkpt lat="46.92601" lon="4.72349">
        <ele>230.848605</ele>
        <time>2022-05-26T17:26:30.635Z</time>
      </trkpt>
      <trkpt lat="46.92539" lon="4.72302">
        <ele>228.71181</ele>
        <time>2022-05-26T17:27:45.035Z</time>
      </trkpt>
      <trkpt lat="46.92519" lon="4.72319">
        <ele>228.085459</ele>
        <time>2022-05-26T17:28:10.644Z</time>
      </trkpt>
      <trkpt lat="46.925" lon="4.72348">
        <ele>227.383396</ele>
        <time>2022-05-26T17:28:39.738Z</time>
      </trkpt>
      <trkpt lat="46.9243" lon="4.72463">
        <ele>224.67882</ele>
        <time>2022-05-26T17:30:30.580Z</time>
      </trkpt>
      <trkpt lat="46.92372" lon="4.72498">
        <ele>224.265907</ele>
        <time>2022-05-26T17:31:35.590Z</time>
      </trkpt>
      <trkpt lat="46.92335" lon="4.72474">
        <ele>224.524055</ele>
        <time>2022-05-26T17:32:15.900Z</time>
      </trkpt>
      <trkpt lat="46.92284" lon="4.72427">
        <ele>224.912985</ele>
        <time>2022-05-26T17:33:18.207Z</time>
      </trkpt>
      <trkpt lat="46.92235" lon="4.72324">
        <ele>226.543743</ele>
        <time>2022-05-26T17:34:52.457Z</time>
      </trkpt>
      <trkpt lat="46.92209" lon="4.72282">
        <ele>227.754985</ele>
        <time>2022-05-26T17:35:36.748Z</time>
      </trkpt>
      <trkpt lat="46.92187" lon="4.72199">
        <ele>229.626289</ele>
        <time>2022-05-26T17:36:44.982Z</time>
      </trkpt>
      <trkpt lat="46.92119" lon="4.72111">
        <ele>231.729748</ele>
        <time>2022-05-26T17:38:24.431Z</time>
      </trkpt>
      <trkpt lat="46.92049" lon="4.71982">
        <ele>233.789336</ele>
        <time>2022-05-26T17:40:25.336Z</time>
      </trkpt>
      <trkpt lat="46.92005" lon="4.71921">
        <ele>234.175058</ele>
        <time>2022-05-26T17:41:26.430Z</time>
      </trkpt>
      <trkpt lat="46.91961" lon="4.71819">
        <ele>234.445437</ele>
        <time>2022-05-26T17:42:49.005Z</time>
      </trkpt>
      <trkpt lat="46.91957" lon="4.71798">
        <ele>234.496125</ele>
        <time>2022-05-26T17:43:04.482Z</time>
      </trkpt>
      <trkpt lat="46.91927" lon="4.71742">
        <ele>235.011422</ele>
        <time>2022-05-26T17:43:54.970Z</time>
      </trkpt>
      <trkpt lat="46.91957" lon="4.71798">
        <ele>236.442507</ele>
        <time>2022-05-26T17:44:46.896Z</time>
      </trkpt>
      <trkpt lat="46.91977" lon="4.71791">
        <ele>237.054905</ele>
        <time>2022-05-26T17:45:09.194Z</time>
      </trkpt>
      <trkpt lat="46.92" lon="4.71774">
        <ele>237.82017</ele>
        <time>2022-05-26T17:45:38.068Z</time>
      </trkpt>
      <trkpt lat="46.92025" lon="4.71761">
        <ele>238.616008</ele>
        <time>2022-05-26T17:46:08.816Z</time>
      </trkpt>
      <trkpt lat="46.92108" lon="4.71695">
        <ele>241.486171</ele>
        <time>2022-05-26T17:47:57.315Z</time>
      </trkpt>
      <trkpt lat="46.92122" lon="4.7168">
        <ele>242.042971</ele>
        <time>2022-05-26T17:48:17.685Z</time>
      </trkpt>
      <trkpt lat="46.92158" lon="4.71658">
        <ele>243.259663</ele>
        <time>2022-05-26T17:49:00.987Z</time>
      </trkpt>
      <trkpt lat="46.9208" lon="4.71579">
        <ele>245.806142</ele>
        <time>2022-05-26T17:50:42.892Z</time>
      </trkpt>
      <trkpt lat="46.92019" lon="4.71504">
        <ele>246.715655</ele>
        <time>2022-05-26T17:52:07.008Z</time>
      </trkpt>
      <trkpt lat="46.9201" lon="4.71464">
        <ele>247.037854</ele>
        <time>2022-05-26T17:52:35.968Z</time>
      </trkpt>
      <trkpt lat="46.91967" lon="4.71387">
        <ele>247.542156</ele>
        <time>2022-05-26T17:53:46.053Z</time>
      </trkpt>
      <trkpt lat="46.91928" lon="4.71319">
        <ele>247.30194</ele>
        <time>2022-05-26T17:54:46.309Z</time>
      </trkpt>
      <trkpt lat="46.91915" lon="4.71296">
        <ele>247.220674</ele>
        <time>2022-05-26T17:55:06.999Z</time>
      </trkpt>
      <trkpt lat="46.91876" lon="4.71252">
        <ele>247.026576</ele>
        <time>2022-05-26T17:55:56.228Z</time>
      </trkpt>
      <trkpt lat="46.91849" lon="4.71232">
        <ele>246.902843</ele>
        <time>2022-05-26T17:56:27.879Z</time>
      </trkpt>
      <trkpt lat="46.91833" lon="4.71206">
        <ele>246.676641</ele>
        <time>2022-05-26T17:56:52.220Z</time>
      </trkpt>
      <trkpt lat="46.91832" lon="4.71156">
        <ele>246.330658</ele>
        <time>2022-05-26T17:57:27.323Z</time>
      </trkpt>
      <trkpt lat="46.9182" lon="4.71091">
        <ele>245.865057</ele>
        <time>2022-05-26T17:58:14.362Z</time>
      </trkpt>
      <trkpt lat="46.91808" lon="4.71034">
        <ele>245.451762</ele>
        <time>2022-05-26T17:58:56.286Z</time>
      </trkpt>
      <trkpt lat="46.91768" lon="4.70922">
        <ele>244.764168</ele>
        <time>2022-05-26T18:00:24.254Z</time>
      </trkpt>
      <trkpt lat="46.91708" lon="4.70798">
        <ele>244.107261</ele>
        <time>2022-05-26T18:02:09.183Z</time>
      </trkpt>
      <trkpt lat="46.91654" lon="4.70737">
        <ele>243.925373</ele>
        <time>2022-05-26T18:03:18.127Z</time>
      </trkpt>
      <trkpt lat="46.91571" lon="4.70596">
        <ele>243.891813</ele>
        <time>2022-05-26T18:05:25.786Z</time>
      </trkpt>
      <trkpt lat="46.91533" lon="4.70501">
        <ele>243.073986</ele>
        <time>2022-05-26T18:06:41.048Z</time>
      </trkpt>
      <trkpt lat="46.91526" lon="4.70416">
        <ele>242.316116</ele>
        <time>2022-05-26T18:07:41.298Z</time>
      </trkpt>
      <trkpt lat="46.91507" lon="4.70331">
        <ele>241.413208</ele>
        <time>2022-05-26T18:08:45.342Z</time>
      </trkpt>
      <trkpt lat="46.91492" lon="4.70271">
        <ele>239.243438</ele>
        <time>2022-05-26T18:09:32.523Z</time>
      </trkpt>
      <trkpt lat="46.91474" lon="4.70259">
        <ele>238.253489</ele>
        <time>2022-05-26T18:09:54.033Z</time>
      </trkpt>
      <trkpt lat="46.91445" lon="4.70217">
        <ele>236.201555</ele>
        <time>2022-05-26T18:10:39.622Z</time>
      </trkpt>
      <trkpt lat="46.91421" lon="4.7018">
        <ele>234.50397</ele>
        <time>2022-05-26T18:11:17.786Z</time>
      </trkpt>
      <trkpt lat="46.91402" lon="4.70164">
        <ele>233.394444</ele>
        <time>2022-05-26T18:11:43.150Z</time>
      </trkpt>
      <trkpt lat="46.91374" lon="4.7015">
        <ele>231.916341</ele>
        <time>2022-05-26T18:12:16.836Z</time>
      </trkpt>
      <trkpt lat="46.9137" lon="4.70134">
        <ele>231.325666</ele>
        <time>2022-05-26T18:12:29.971Z</time>
      </trkpt>
      <trkpt lat="46.91229" lon="4.70089">
        <ele>223.99098</ele>
        <time>2022-05-26T18:15:10.574Z</time>
      </trkpt>
      <trkpt lat="46.91152" lon="4.70072">
        <ele>223.147807</ele>
        <time>2022-05-26T18:16:31.482Z</time>
      </trkpt>
      <trkpt lat="46.91142" lon="4.70059">
        <ele>223.079799</ele>
        <time>2022-05-26T18:16:44.556Z</time>
      </trkpt>
      <trkpt lat="46.91136" lon="4.70015">
        <ele>222.917082</ele>
        <time>2022-05-26T18:17:15.534Z</time>
      </trkpt>
      <trkpt lat="46.91171" lon="4.69958">
        <ele>222.641252</ele>
        <time>2022-05-26T18:18:10.269Z</time>
      </trkpt>
      <trkpt lat="46.91188" lon="4.69933">
        <ele>222.772771</ele>
        <time>2022-05-26T18:18:35.979Z</time>
      </trkpt>
      <trkpt lat="46.91225" lon="4.69883">
        <ele>224.024782</ele>
        <time>2022-05-26T18:19:30.461Z</time>
      </trkpt>
      <trkpt lat="46.91303" lon="4.69745">
        <ele>227.082379</ele>
        <time>2022-05-26T18:21:44.616Z</time>
      </trkpt>
      <trkpt lat="46.91334" lon="4.69691">
        <ele>229.053506</ele>
        <time>2022-05-26T18:22:37.717Z</time>
      </trkpt>
      <trkpt lat="46.91364" lon="4.69644">
        <ele>230.885775</ele>
        <time>2022-05-26T18:23:27.527Z</time>
      </trkpt>
      <trkpt lat="46.9138" lon="4.69606">
        <ele>232.148115</ele>
        <time>2022-05-26T18:24:03.092Z</time>
      </trkpt>
      <trkpt lat="46.91405" lon="4.69568">
        <ele>233.599057</ele>
        <time>2022-05-26T18:24:45.341Z</time>
      </trkpt>
      <trkpt lat="46.91483" lon="4.69526">
        <ele>236.788449</ele>
        <time>2022-05-26T18:26:23.627Z</time>
      </trkpt>
      <trkpt lat="46.9154" lon="4.69551">
        <ele>239.019987</ele>
        <time>2022-05-26T18:27:31.329Z</time>
      </trkpt>
      <trkpt lat="46.91542" lon="4.69492">
        <ele>240.535205</ele>
        <time>2022-05-26T18:28:14.710Z</time>
      </trkpt>
      <trkpt lat="46.91536" lon="4.69468">
        <ele>241.18845</ele>
        <time>2022-05-26T18:28:33.459Z</time>
      </trkpt>
      <trkpt lat="46.91528" lon="4.69436">
        <ele>241.578258</ele>
        <time>2022-05-26T18:28:58.016Z</time>
      </trkpt>
      <trkpt lat="46.91514" lon="4.69406">
        <ele>241.991194</ele>
        <time>2022-05-26T18:29:24.095Z</time>
      </trkpt>
      <trkpt lat="46.91477" lon="4.69355">
        <ele>242.846764</ele>
        <time>2022-05-26T18:30:17.753Z</time>
      </trkpt>
      <trkpt lat="46.91452" lon="4.69344">
        <ele>243.281918</ele>
        <time>2022-05-26T18:30:44.013Z</time>
      </trkpt>
      <trkpt lat="46.91431" lon="4.693">
        <ele>243.898457</ele>
        <time>2022-05-26T18:31:21.884Z</time>
      </trkpt>
      <trkpt lat="46.91416" lon="4.69254">
        <ele>245.067555</ele>
        <time>2022-05-26T18:31:59.039Z</time>
      </trkpt>
      <trkpt lat="46.91429" lon="4.69176">
        <ele>247.957606</ele>
        <time>2022-05-26T18:33:02.616Z</time>
      </trkpt>
      <trkpt lat="46.91434" lon="4.69102">
        <ele>250.603316</ele>
        <time>2022-05-26T18:34:03.565Z</time>
      </trkpt>
      <trkpt lat="46.91432" lon="4.6903">
        <ele>253.187521</ele>
        <time>2022-05-26T18:35:05.160Z</time>
      </trkpt>
      <trkpt lat="46.9144" lon="4.68896">
        <ele>258.441841</ele>
        <time>2022-05-26T18:36:58.545Z</time>
      </trkpt>
      <trkpt lat="46.91457" lon="4.68816">
        <ele>261.756752</ele>
        <time>2022-05-26T18:38:08.726Z</time>
      </trkpt>
      <trkpt lat="46.91457" lon="4.68736">
        <ele>264.271638</ele>
        <time>2022-05-26T18:39:09.670Z</time>
      </trkpt>
      <trkpt lat="46.91453" lon="4.6872">
        <ele>264.470923</ele>
        <time>2022-05-26T18:39:24.092Z</time>
      </trkpt>
      <trkpt lat="46.91447" lon="4.68727">
        <ele>264.600403</ele>
        <time>2022-05-26T18:39:32.036Z</time>
      </trkpt>
      <trkpt lat="46.91398" lon="4.68578">
        <ele>266.47894</ele>
        <time>2022-05-26T18:41:28.965Z</time>
      </trkpt>
      <trkpt lat="46.91388" lon="4.68568">
        <ele>266.683123</ele>
        <time>2022-05-26T18:41:41.488Z</time>
      </trkpt>
      <trkpt lat="46.91375" lon="4.68545">
        <ele>267.023516</ele>
        <time>2022-05-26T18:42:03.551Z</time>
      </trkpt>
      <trkpt lat="46.91328" lon="4.68376">
        <ele>268.146794</ele>
        <time>2022-05-26T18:44:11.773Z</time>
      </trkpt>
      <trkpt lat="46.91332" lon="4.68373">
        <ele>268.185327</ele>
        <time>2022-05-26T18:44:16.171Z</time>
      </trkpt>
      <trkpt lat="46.91381" lon="4.68355">
        <ele>268.632939</ele>
        <time>2022-05-26T18:45:09.278Z</time>
      </trkpt>
      <trkpt lat="46.91437" lon="4.68324">
        <ele>268.098948</ele>
        <time>2022-05-26T18:46:11.079Z</time>
      </trkpt>
      <trkpt lat="46.91455" lon="4.68322">
        <ele>267.941318</ele>
        <time>2022-05-26T18:46:29.598Z</time>
      </trkpt>
      <trkpt lat="46.91473" lon="4.68276">
        <ele>267.612883</ele>
        <time>2022-05-26T18:47:07.885Z</time>
      </trkpt>
      <trkpt lat="46.91474" lon="4.68258">
        <ele>267.501121</ele>
        <time>2022-05-26T18:47:21.191Z</time>
      </trkpt>
      <trkpt lat="46.91447" lon="4.6818">
        <ele>267.008176</ele>
        <time>2022-05-26T18:48:24.071Z</time>
      </trkpt>
      <trkpt lat="46.91421" lon="4.68136">
        <ele>266.876734</ele>
        <time>2022-05-26T18:49:06.025Z</time>
      </trkpt>
      <trkpt lat="46.91412" lon="4.68104">
        <ele>266.800199</ele>
        <time>2022-05-26T18:49:31.157Z</time>
      </trkpt>
      <trkpt lat="46.91406" lon="4.68086">
        <ele>266.755391</ele>
        <time>2022-05-26T18:49:44.953Z</time>
      </trkpt>
      <trkpt lat="46.91388" lon="4.68041">
        <ele>266.636859</ele>
        <time>2022-05-26T18:50:21.420Z</time>
      </trkpt>
      <trkpt lat="46.91413" lon="4.68014">
        <ele>266.535467</ele>
        <time>2022-05-26T18:50:52.695Z</time>
      </trkpt>
      <trkpt lat="46.91508" lon="4.6796">
        <ele>270.868979</ele>
        <time>2022-05-26T18:52:48.426Z</time>
      </trkpt>
      <trkpt lat="46.916" lon="4.67931">
        <ele>276.506125</ele>
        <time>2022-05-26T18:54:46.989Z</time>
      </trkpt>
      <trkpt lat="46.91676" lon="4.6793">
        <ele>283.184418</ele>
        <time>2022-05-26T18:56:25.058Z</time>
      </trkpt>
      <trkpt lat="46.91752" lon="4.67874">
        <ele>291.178122</ele>
        <time>2022-05-26T18:58:18.137Z</time>
      </trkpt>
      <trkpt lat="46.91922" lon="4.67739">
        <ele>310.469983</ele>
        <time>2022-05-26T19:02:38.402Z</time>
      </trkpt>
      <trkpt lat="46.91972" lon="4.67782">
        <ele>315.234642</ele>
        <time>2022-05-26T19:03:54.623Z</time>
      </trkpt>
      <trkpt lat="46.91994" lon="4.67702">
        <ele>319.603423</ele>
        <time>2022-05-26T19:05:08.838Z</time>
      </trkpt>
      <trkpt lat="46.92018" lon="4.67667">
        <ele>322.152158</ele>
        <time>2022-05-26T19:05:50.884Z</time>
      </trkpt>
      <trkpt lat="46.9201" lon="4.67641">
        <ele>323.612895</ele>
        <time>2022-05-26T19:06:14.463Z</time>
      </trkpt>
      <trkpt lat="46.91999" lon="4.67623">
        <ele>324.837521</ele>
        <time>2022-05-26T19:06:33.995Z</time>
      </trkpt>
      <trkpt lat="46.91954" lon="4.67576">
        <ele>328.1952</ele>
        <time>2022-05-26T19:07:38.627Z</time>
      </trkpt>
      <trkpt lat="46.91942" lon="4.67555">
        <ele>329.304859</ele>
        <time>2022-05-26T19:08:01.469Z</time>
      </trkpt>
      <trkpt lat="46.91933" lon="4.67526">
        <ele>330.526256</ele>
        <time>2022-05-26T19:08:26.822Z</time>
      </trkpt>
      <trkpt lat="46.91874" lon="4.67502">
        <ele>334.051599</ele>
        <time>2022-05-26T19:09:39.725Z</time>
      </trkpt>
      <trkpt lat="46.91828" lon="4.67497">
        <ele>336.900482</ele>
        <time>2022-05-26T19:10:35.360Z</time>
      </trkpt>
      <trkpt lat="46.91773" lon="4.67472">
        <ele>341.30503</ele>
        <time>2022-05-26T19:11:48.761Z</time>
      </trkpt>
      <trkpt lat="46.91647" lon="4.6745">
        <ele>351.353483</ele>
        <time>2022-05-26T19:14:29.654Z</time>
      </trkpt>
      <trkpt lat="46.91619" lon="4.6743">
        <ele>354.407453</ele>
        <time>2022-05-26T19:15:09.237Z</time>
      </trkpt>
      <trkpt lat="46.91539" lon="4.67418">
        <ele>362.431357</ele>
        <time>2022-05-26T19:16:55.378Z</time>
      </trkpt>
      <trkpt lat="46.91525" lon="4.67393">
        <ele>364.639735</ele>
        <time>2022-05-26T19:17:25.647Z</time>
      </trkpt>
      <trkpt lat="46.9152" lon="4.67366">
        <ele>366.521466</ele>
        <time>2022-05-26T19:17:53.915Z</time>
      </trkpt>
      <trkpt lat="46.91505" lon="4.67279">
        <ele>375.587112</ele>
        <time>2022-05-26T19:19:23.638Z</time>
      </trkpt>
      <trkpt lat="46.91502" lon="4.67218">
        <ele>382.287333</ele>
        <time>2022-05-26T19:20:32.292Z</time>
      </trkpt>
      <trkpt lat="46.9151" lon="4.67148">
        <ele>389.91882</ele>
        <time>2022-05-26T19:22:01.567Z</time>
      </trkpt>
      <trkpt lat="46.91505" lon="4.67033">
        <ele>402.812577</ele>
        <time>2022-05-26T19:24:32.480Z</time>
      </trkpt>
      <trkpt lat="46.91505" lon="4.67023">
        <ele>403.924219</ele>
        <time>2022-05-26T19:24:44.874Z</time>
      </trkpt>
      <trkpt lat="46.91497" lon="4.66894">
        <ele>418.74538</ele>
        <time>2022-05-26T19:27:16.871Z</time>
      </trkpt>
      <trkpt lat="46.91502" lon="4.66791">
        <ele>429.55949</ele>
        <time>2022-05-26T19:29:13.613Z</time>
      </trkpt>
      <trkpt lat="46.91491" lon="4.66744">
        <ele>433.969183</ele>
        <time>2022-05-26T19:30:11.192Z</time>
      </trkpt>
      <trkpt lat="46.91486" lon="4.66698">
        <ele>438.061382</ele>
        <time>2022-05-26T19:30:59.807Z</time>
      </trkpt>
      <trkpt lat="46.91496" lon="4.66646">
        <ele>442.798823</ele>
        <time>2022-05-26T19:31:52.112Z</time>
      </trkpt>
      <trkpt lat="46.91515" lon="4.6661">
        <ele>446.790083</ele>
        <time>2022-05-26T19:32:34.128Z</time>
      </trkpt>
      <trkpt lat="46.91528" lon="4.66598">
        <ele>448.744851</ele>
        <time>2022-05-26T19:32:56.438Z</time>
      </trkpt>
      <trkpt lat="46.91555" lon="4.6659">
        <ele>451.291191</ele>
        <time>2022-05-26T19:33:32.085Z</time>
      </trkpt>
      <trkpt lat="46.91628" lon="4.66485">
        <ele>459.723739</ele>
        <time>2022-05-26T19:35:46.473Z</time>
      </trkpt>
      <trkpt lat="46.91741" lon="4.66371">
        <ele>468.654201</ele>
        <time>2022-05-26T19:38:29.343Z</time>
      </trkpt>
      <trkpt lat="46.91744" lon="4.6636">
        <ele>469.097019</ele>
        <time>2022-05-26T19:38:39.151Z</time>
      </trkpt>
      <trkpt lat="46.91795" lon="4.66476">
        <ele>474.116036</ele>
        <time>2022-05-26T19:40:28.632Z</time>
      </trkpt>
      <trkpt lat="46.91826" lon="4.66518">
        <ele>476.621013</ele>
        <time>2022-05-26T19:41:19.229Z</time>
      </trkpt>
      <trkpt lat="46.91839" lon="4.66527">
        <ele>477.522695</ele>
        <time>2022-05-26T19:41:37.549Z</time>
      </trkpt>
      <trkpt lat="46.91871" lon="4.66549">
        <ele>479.562533</ele>
        <time>2022-05-26T19:42:19.172Z</time>
      </trkpt>
      <trkpt lat="46.91896" lon="4.66601">
        <ele>482.147326</ele>
        <time>2022-05-26T19:43:11.671Z</time>
      </trkpt>
      <trkpt lat="46.91898" lon="4.66626">
        <ele>483.186851</ele>
        <time>2022-05-26T19:43:33.204Z</time>
      </trkpt>
      <trkpt lat="46.91892" lon="4.66676">
        <ele>485.316466</ele>
        <time>2022-05-26T19:44:15.827Z</time>
      </trkpt>
      <trkpt lat="46.91905" lon="4.66752">
        <ele>488.698367</ele>
        <time>2022-05-26T19:45:20.771Z</time>
      </trkpt>
      <trkpt lat="46.91928" lon="4.6689">
        <ele>494.85419</ele>
        <time>2022-05-26T19:47:18.941Z</time>
      </trkpt>
      <trkpt lat="46.91931" lon="4.66902">
        <ele>495.4253</ele>
        <time>2022-05-26T19:47:29.748Z</time>
      </trkpt>
      <trkpt lat="46.9195" lon="4.66923">
        <ele>496.40361</ele>
        <time>2022-05-26T19:47:59.870Z</time>
      </trkpt>
      <trkpt lat="46.91951" lon="4.66924">
        <ele>496.429576</ele>
        <time>2022-05-26T19:48:01.120Z</time>
      </trkpt>
      <trkpt lat="46.91964" lon="4.66936">
        <ele>496.841715</ele>
        <time>2022-05-26T19:48:19.955Z</time>
      </trkpt>
      <trkpt lat="46.91982" lon="4.66947">
        <ele>497.371053</ele>
        <time>2022-05-26T19:48:43.837Z</time>
      </trkpt>
      <trkpt lat="46.92002" lon="4.66961">
        <ele>497.938707</ele>
        <time>2022-05-26T19:49:08.429Z</time>
      </trkpt>
      <trkpt lat="46.92006" lon="4.66964">
        <ele>498.083253</ele>
        <time>2022-05-26T19:49:14.089Z</time>
      </trkpt>
      <trkpt lat="46.92016" lon="4.66966">
        <ele>498.334446</ele>
        <time>2022-05-26T19:49:25.094Z</time>
      </trkpt>
      <trkpt lat="46.92041" lon="4.66977">
        <ele>499.052152</ele>
        <time>2022-05-26T19:49:53.550Z</time>
      </trkpt>
      <trkpt lat="46.92048" lon="4.66966">
        <ele>499.306236</ele>
        <time>2022-05-26T19:50:03.736Z</time>
      </trkpt>
      <trkpt lat="46.9206" lon="4.66927">
        <ele>500.088173</ele>
        <time>2022-05-26T19:50:33.181Z</time>
      </trkpt>
      <trkpt lat="46.92049" lon="4.66887">
        <ele>500.729972</ele>
        <time>2022-05-26T19:51:02.804Z</time>
      </trkpt>
      <trkpt lat="46.92015" lon="4.66788">
        <ele>497.976915</ele>
        <time>2022-05-26T19:52:22.422Z</time>
      </trkpt>
      <trkpt lat="46.92012" lon="4.66762">
        <ele>497.314484</ele>
        <time>2022-05-26T19:52:41.956Z</time>
      </trkpt>
      <trkpt lat="46.92018" lon="4.66745">
        <ele>496.854145</ele>
        <time>2022-05-26T19:52:55.602Z</time>
      </trkpt>
      <trkpt lat="46.92026" lon="4.6674">
        <ele>496.543139</ele>
        <time>2022-05-26T19:53:04.916Z</time>
      </trkpt>
      <trkpt lat="46.92078" lon="4.66733">
        <ele>494.628245</ele>
        <time>2022-05-26T19:54:03.605Z</time>
      </trkpt>
      <trkpt lat="46.92085" lon="4.66733">
        <ele>494.369497</ele>
        <time>2022-05-26T19:54:11.611Z</time>
      </trkpt>
      <trkpt lat="46.92101" lon="4.66739">
        <ele>493.510958</ele>
        <time>2022-05-26T19:54:30.197Z</time>
      </trkpt>
      <trkpt lat="46.92142" lon="4.66758">
        <ele>491.156918</ele>
        <time>2022-05-26T19:55:18.623Z</time>
      </trkpt>
      <trkpt lat="46.92208" lon="4.66853">
        <ele>486.087966</ele>
        <time>2022-05-26T19:57:01.160Z</time>
      </trkpt>
      <trkpt lat="46.92261" lon="4.6689">
        <ele>482.448814</ele>
        <time>2022-05-26T19:58:05.317Z</time>
      </trkpt>
      <trkpt lat="46.92275" lon="4.66882">
        <ele>481.348542</ele>
        <time>2022-05-26T19:58:22.615Z</time>
      </trkpt>
      <trkpt lat="46.92308" lon="4.6683">
        <ele>477.939927</ele>
        <time>2022-05-26T19:59:17.692Z</time>
      </trkpt>
      <trkpt lat="46.92319" lon="4.66824">
        <ele>477.091356</ele>
        <time>2022-05-26T19:59:31.486Z</time>
      </trkpt>
      <trkpt lat="46.92365" lon="4.66823">
        <ele>473.900678</ele>
        <time>2022-05-26T20:00:24.051Z</time>
      </trkpt>
      <trkpt lat="46.92382" lon="4.66809">
        <ele>472.498497</ele>
        <time>2022-05-26T20:00:47.509Z</time>
      </trkpt>
      <trkpt lat="46.92413" lon="4.66736">
        <ele>467.706301</ele>
        <time>2022-05-26T20:01:55.565Z</time>
      </trkpt>
      <trkpt lat="46.92414" lon="4.66733">
        <ele>467.530016</ele>
        <time>2022-05-26T20:01:58.125Z</time>
      </trkpt>
      <trkpt lat="46.92434" lon="4.66697">
        <ele>464.859684</ele>
        <time>2022-05-26T20:02:35.263Z</time>
      </trkpt>
      <trkpt lat="46.9245" lon="4.66654">
        <ele>461.983047</ele>
        <time>2022-05-26T20:03:15.547Z</time>
      </trkpt>
      <trkpt lat="46.92464" lon="4.66584">
        <ele>457.794618</ele>
        <time>2022-05-26T20:04:14.357Z</time>
      </trkpt>
      <trkpt lat="46.92467" lon="4.66574">
        <ele>457.182002</ele>
        <time>2022-05-26T20:04:22.790Z</time>
      </trkpt>
      <trkpt lat="46.92483" lon="4.66527">
        <ele>455.454203</ele>
        <time>2022-05-26T20:05:03.595Z</time>
      </trkpt>
      <trkpt lat="46.92505" lon="4.66503">
        <ele>454.401139</ele>
        <time>2022-05-26T20:05:34.122Z</time>
      </trkpt>
      <trkpt lat="46.9252" lon="4.66498">
        <ele>453.808723</ele>
        <time>2022-05-26T20:05:51.153Z</time>
      </trkpt>
      <trkpt lat="46.92563" lon="4.66507">
        <ele>452.149572</ele>
        <time>2022-05-26T20:06:37.869Z</time>
      </trkpt>
      <trkpt lat="46.92573" lon="4.6652">
        <ele>451.637852</ele>
        <time>2022-05-26T20:06:51.908Z</time>
      </trkpt>
      <trkpt lat="46.92598" lon="4.66544">
        <ele>450.504935</ele>
        <time>2022-05-26T20:07:22.667Z</time>
      </trkpt>
      <trkpt lat="46.92733" lon="4.66612">
        <ele>450.135841</ele>
        <time>2022-05-26T20:09:47.003Z</time>
      </trkpt>
      <trkpt lat="46.9275" lon="4.66612">
        <ele>450.202561</ele>
        <time>2022-05-26T20:10:04.268Z</time>
      </trkpt>
      <trkpt lat="46.92764" lon="4.66613">
        <ele>450.25924</ele>
        <time>2022-05-26T20:10:19.104Z</time>
      </trkpt>
      <trkpt lat="46.92892" lon="4.66543">
        <ele>451.568984</ele>
        <time>2022-05-26T20:12:42.331Z</time>
      </trkpt>
      <trkpt lat="46.92925" lon="4.66529">
        <ele>451.946295</ele>
        <time>2022-05-26T20:13:17.692Z</time>
      </trkpt>
      <trkpt lat="46.92933" lon="4.66526">
        <ele>452.034719</ele>
        <time>2022-05-26T20:13:26.031Z</time>
      </trkpt>
      <trkpt lat="46.92925" lon="4.66529">
        <ele>452.123142</ele>
        <time>2022-05-26T20:13:34.164Z</time>
      </trkpt>
      <trkpt lat="46.9296" lon="4.66478">
        <ele>452.659584</ele>
        <time>2022-05-26T20:14:25.413Z</time>
      </trkpt>
      <trkpt lat="46.92973" lon="4.66457">
        <ele>452.871396</ele>
        <time>2022-05-26T20:14:45.821Z</time>
      </trkpt>
      <trkpt lat="46.93075" lon="4.66383">
        <ele>454.092241</ele>
        <time>2022-05-26T20:16:44.191Z</time>
      </trkpt>
      <trkpt lat="46.93176" lon="4.66252">
        <ele>454.330887</ele>
        <time>2022-05-26T20:19:03.298Z</time>
      </trkpt>
      <trkpt lat="46.932" lon="4.66194">
        <ele>454.346975</ele>
        <time>2022-05-26T20:19:49.733Z</time>
      </trkpt>
      <trkpt lat="46.93289" lon="4.66097">
        <ele>450.415996</ele>
        <time>2022-05-26T20:21:47.489Z</time>
      </trkpt>
      <trkpt lat="46.93384" lon="4.66076">
        <ele>445.868905</ele>
        <time>2022-05-26T20:23:33.995Z</time>
      </trkpt>
      <trkpt lat="46.93412" lon="4.66055">
        <ele>442.686526</ele>
        <time>2022-05-26T20:24:11.108Z</time>
      </trkpt>
      <trkpt lat="46.93436" lon="4.66022">
        <ele>439.443434</ele>
        <time>2022-05-26T20:24:50.019Z</time>
      </trkpt>
      <trkpt lat="46.93478" lon="4.6595">
        <ele>433.064207</ele>
        <time>2022-05-26T20:26:08.156Z</time>
      </trkpt>
      <trkpt lat="46.93625" lon="4.65775">
        <ele>411.205445</ele>
        <time>2022-05-26T20:30:03.876Z</time>
      </trkpt>
      <trkpt lat="46.93678" lon="4.65671">
        <ele>402.435186</ele>
        <time>2022-05-26T20:31:51.120Z</time>
      </trkpt>
      <trkpt lat="46.93707" lon="4.65597">
        <ele>397.316885</ele>
        <time>2022-05-26T20:32:59.317Z</time>
      </trkpt>
      <trkpt lat="46.93774" lon="4.6549">
        <ele>389.642224</ele>
        <time>2022-05-26T20:34:52.717Z</time>
      </trkpt>
      <trkpt lat="46.93806" lon="4.65385">
        <ele>385.124224</ele>
        <time>2022-05-26T20:36:20.735Z</time>
      </trkpt>
      <trkpt lat="46.93872" lon="4.65226">
        <ele>379.122399</ele>
        <time>2022-05-26T20:38:39.834Z</time>
      </trkpt>
      <trkpt lat="46.93943" lon="4.65172">
        <ele>376.27942</ele>
        <time>2022-05-26T20:40:05.360Z</time>
      </trkpt>
      <trkpt lat="46.93931" lon="4.65054">
        <ele>373.959572</ele>
        <time>2022-05-26T20:41:30.830Z</time>
      </trkpt>
      <trkpt lat="46.93921" lon="4.65014">
        <ele>373.30189</ele>
        <time>2022-05-26T20:42:01.722Z</time>
      </trkpt>
      <trkpt lat="46.93903" lon="4.64976">
        <ele>372.591521</ele>
        <time>2022-05-26T20:42:35.053Z</time>
      </trkpt>
      <trkpt lat="46.93791" lon="4.64847">
        <ele>370.08178</ele>
        <time>2022-05-26T20:45:03.010Z</time>
      </trkpt>
      <trkpt lat="46.93702" lon="4.64716">
        <ele>368.559517</ele>
        <time>2022-05-26T20:47:11.500Z</time>
      </trkpt>
      <trkpt lat="46.93663" lon="4.64606">
        <ele>367.498621</ele>
        <time>2022-05-26T20:48:37.255Z</time>
      </trkpt>
      <trkpt lat="46.93644" lon="4.64571">
        <ele>367.105313</ele>
        <time>2022-05-26T20:49:09.411Z</time>
      </trkpt>
      <trkpt lat="46.93603" lon="4.64516">
        <ele>366.381944</ele>
        <time>2022-05-26T20:50:06.369Z</time>
      </trkpt>
      <trkpt lat="46.93591" lon="4.6449">
        <ele>365.867059</ele>
        <time>2022-05-26T20:50:29.185Z</time>
      </trkpt>
      <trkpt lat="46.93537" lon="4.64287">
        <ele>362.361725</ele>
        <time>2022-05-26T20:53:05.406Z</time>
      </trkpt>
      <trkpt lat="46.9352" lon="4.64247">
        <ele>361.470851</ele>
        <time>2022-05-26T20:53:39.182Z</time>
      </trkpt>
      <trkpt lat="46.93436" lon="4.64093">
        <ele>357.589371</ele>
        <time>2022-05-26T20:56:01.622Z</time>
      </trkpt>
      <trkpt lat="46.93301" lon="4.639">
        <ele>350.59025</ele>
        <time>2022-05-26T20:59:25.299Z</time>
      </trkpt>
      <trkpt lat="46.93239" lon="4.63685">
        <ele>344.136989</ele>
        <time>2022-05-26T21:02:19.388Z</time>
      </trkpt>
      <trkpt lat="46.93225" lon="4.63649">
        <ele>342.995213</ele>
        <time>2022-05-26T21:02:49.371Z</time>
      </trkpt>
      <trkpt lat="46.93218" lon="4.63631">
        <ele>342.659588</ele>
        <time>2022-05-26T21:03:05.021Z</time>
      </trkpt>
      <trkpt lat="46.93191" lon="4.636">
        <ele>342.050431</ele>
        <time>2022-05-26T21:03:40.779Z</time>
      </trkpt>
      <trkpt lat="46.93168" lon="4.63581">
        <ele>341.578161</ele>
        <time>2022-05-26T21:04:08.361Z</time>
      </trkpt>
      <trkpt lat="46.93191" lon="4.636">
        <ele>341.105892</ele>
        <time>2022-05-26T21:04:35.407Z</time>
      </trkpt>
      <trkpt lat="46.93233" lon="4.63572">
        <ele>340.269301</ele>
        <time>2022-05-26T21:05:23.587Z</time>
      </trkpt>
      <trkpt lat="46.93319" lon="4.63533">
        <ele>339.386315</ele>
        <time>2022-05-26T21:06:53.341Z</time>
      </trkpt>
      <trkpt lat="46.93529" lon="4.63497">
        <ele>337.922507</ele>
        <time>2022-05-26T21:10:27.696Z</time>
      </trkpt>
      <trkpt lat="46.93633" lon="4.63509">
        <ele>336.68937</ele>
        <time>2022-05-26T21:12:14.542Z</time>
      </trkpt>
      <trkpt lat="46.93733" lon="4.6354">
        <ele>333.910403</ele>
        <time>2022-05-26T21:14:02.475Z</time>
      </trkpt>
      <trkpt lat="46.93722" lon="4.63439">
        <ele>331.953794</ele>
        <time>2022-05-26T21:15:17.994Z</time>
      </trkpt>
      <trkpt lat="46.93692" lon="4.6336">
        <ele>329.156197</ele>
        <time>2022-05-26T21:16:24.407Z</time>
      </trkpt>
      <trkpt lat="46.93691" lon="4.63347">
        <ele>328.755855</ele>
        <time>2022-05-26T21:16:34.625Z</time>
      </trkpt>
      <trkpt lat="46.93683" lon="4.63343">
        <ele>328.405974</ele>
        <time>2022-05-26T21:16:42.767Z</time>
      </trkpt>
      <trkpt lat="46.93676" lon="4.633">
        <ele>327.05185</ele>
        <time>2022-05-26T21:17:15.670Z</time>
      </trkpt>
      <trkpt lat="46.93664" lon="4.63282">
        <ele>326.233172</ele>
        <time>2022-05-26T21:17:34.885Z</time>
      </trkpt>
      <trkpt lat="46.93631" lon="4.63262">
        <ele>324.660743</ele>
        <time>2022-05-26T21:18:13.016Z</time>
      </trkpt>
      <trkpt lat="46.93555" lon="4.63243">
        <ele>320.398407</ele>
        <time>2022-05-26T21:19:41.344Z</time>
      </trkpt>
      <trkpt lat="46.93517" lon="4.6326">
        <ele>318.100677</ele>
        <time>2022-05-26T21:20:26.506Z</time>
      </trkpt>
      <trkpt lat="46.93507" lon="4.63246">
        <ele>317.294293</ele>
        <time>2022-05-26T21:20:41.883Z</time>
      </trkpt>
      <trkpt lat="46.93483" lon="4.6317">
        <ele>314.007497</ele>
        <time>2022-05-26T21:21:45.918Z</time>
      </trkpt>
      <trkpt lat="46.93508" lon="4.63152">
        <ele>312.975755</ele>
        <time>2022-05-26T21:22:17.041Z</time>
      </trkpt>
      <trkpt lat="46.93637" lon="4.63108">
        <ele>308.836127</ele>
        <time>2022-05-26T21:24:39.558Z</time>
      </trkpt>
      <trkpt lat="46.93755" lon="4.63091">
        <ele>309.414854</ele>
        <time>2022-05-26T21:26:41.692Z</time>
      </trkpt>
      <trkpt lat="46.93781" lon="4.63086">
        <ele>309.795595</ele>
        <time>2022-05-26T21:27:09.601Z</time>
      </trkpt>
      <trkpt lat="46.938" lon="4.63076">
        <ele>310.096005</ele>
        <time>2022-05-26T21:27:32.287Z</time>
      </trkpt>
      <trkpt lat="46.93817" lon="4.63067">
        <ele>310.352963</ele>
        <time>2022-05-26T21:27:51.199Z</time>
      </trkpt>
      <trkpt lat="46.93833" lon="4.63093">
        <ele>310.734045</ele>
        <time>2022-05-26T21:28:17.809Z</time>
      </trkpt>
      <trkpt lat="46.93855" lon="4.6309">
        <ele>311.482179</ele>
        <time>2022-05-26T21:28:42.545Z</time>
      </trkpt>
      <trkpt lat="46.93882" lon="4.63106">
        <ele>312.478594</ele>
        <time>2022-05-26T21:29:15.914Z</time>
      </trkpt>
      <trkpt lat="46.93928" lon="4.63191">
        <ele>314.991737</ele>
        <time>2022-05-26T21:30:40.835Z</time>
      </trkpt>
      <trkpt lat="46.93958" lon="4.63256">
        <ele>316.782982</ele>
        <time>2022-05-26T21:31:40.616Z</time>
      </trkpt>
      <trkpt lat="46.93973" lon="4.63299">
        <ele>317.394901</ele>
        <time>2022-05-26T21:32:15.403Z</time>
      </trkpt>
      <trkpt lat="46.94016" lon="4.63292">
        <ele>318.206093</ele>
        <time>2022-05-26T21:33:00.968Z</time>
      </trkpt>
      <trkpt lat="46.94074" lon="4.63264">
        <ele>319.353234</ele>
        <time>2022-05-26T21:34:06.332Z</time>
      </trkpt>
      <trkpt lat="46.94092" lon="4.63263">
        <ele>319.682643</ele>
        <time>2022-05-26T21:34:24.751Z</time>
      </trkpt>
      <trkpt lat="46.94121" lon="4.63243">
        <ele>320.290122</ele>
        <time>2022-05-26T21:34:59.119Z</time>
      </trkpt>
      <trkpt lat="46.94195" lon="4.63266">
        <ele>321.682591</ele>
        <time>2022-05-26T21:36:19.710Z</time>
      </trkpt>
      <trkpt lat="46.94317" lon="4.63238">
        <ele>323.51552</ele>
        <time>2022-05-26T21:38:31.863Z</time>
      </trkpt>
      <trkpt lat="46.9441" lon="4.63263">
        <ele>323.804536</ele>
        <time>2022-05-26T21:40:08.377Z</time>
      </trkpt>
      <trkpt lat="46.94557" lon="4.63292">
        <ele>323.4042</ele>
        <time>2022-05-26T21:42:40.184Z</time>
      </trkpt>
      <trkpt lat="46.94661" lon="4.63348">
        <ele>323.026245</ele>
        <time>2022-05-26T21:44:32.124Z</time>
      </trkpt>
      <trkpt lat="46.94747" lon="4.63333">
        <ele>323.735933</ele>
        <time>2022-05-26T21:46:01.535Z</time>
      </trkpt>
      <trkpt lat="46.94819" lon="4.63285">
        <ele>324.445099</ele>
        <time>2022-05-26T21:47:24.208Z</time>
      </trkpt>
      <trkpt lat="46.94914" lon="4.63363">
        <ele>326.290956</ele>
        <time>2022-05-26T21:49:19.445Z</time>
      </trkpt>
      <trkpt lat="46.9493" lon="4.6339">
        <ele>326.713181</ele>
        <time>2022-05-26T21:49:46.149Z</time>
      </trkpt>
      <trkpt lat="46.9494" lon="4.63406">
        <ele>326.963674</ele>
        <time>2022-05-26T21:50:01.879Z</time>
      </trkpt>
      <trkpt lat="46.94956" lon="4.63418">
        <ele>327.256182</ele>
        <time>2022-05-26T21:50:20.597Z</time>
      </trkpt>
      <trkpt lat="46.95015" lon="4.63431">
        <ele>327.864154</ele>
        <time>2022-05-26T21:51:24.265Z</time>
      </trkpt>
      <trkpt lat="46.95086" lon="4.63445">
        <ele>328.540707</ele>
        <time>2022-05-26T21:52:38.240Z</time>
      </trkpt>
      <trkpt lat="46.95104" lon="4.63453">
        <ele>328.72067</ele>
        <time>2022-05-26T21:52:57.518Z</time>
      </trkpt>
      <trkpt lat="46.95155" lon="4.63473">
        <ele>329.074473</ele>
        <time>2022-05-26T21:53:50.648Z</time>
      </trkpt>
      <trkpt lat="46.95164" lon="4.6345">
        <ele>329.097996</ele>
        <time>2022-05-26T21:54:09.050Z</time>
      </trkpt>
      <trkpt lat="46.95179" lon="4.63446">
        <ele>329.117202</ele>
        <time>2022-05-26T21:54:24.025Z</time>
      </trkpt>
      <trkpt lat="46.95214" lon="4.63457">
        <ele>329.163748</ele>
        <time>2022-05-26T21:55:00.189Z</time>
      </trkpt>
      <trkpt lat="46.9523" lon="4.6344">
        <ele>329.188846</ele>
        <time>2022-05-26T21:55:19.647Z</time>
      </trkpt>
      <trkpt lat="46.95238" lon="4.63419">
        <ele>329.21059</ele>
        <time>2022-05-26T21:55:36.490Z</time>
      </trkpt>
      <trkpt lat="46.95245" lon="4.63429">
        <ele>329.22352</ele>
        <time>2022-05-26T21:55:46.409Z</time>
      </trkpt>
      <trkpt lat="46.95259" lon="4.63447">
        <ele>329.248234</ele>
        <time>2022-05-26T21:56:05.585Z</time>
      </trkpt>
      <trkpt lat="46.95283" lon="4.63469">
        <ele>329.284745</ele>
        <time>2022-05-26T21:56:33.857Z</time>
      </trkpt>
      <trkpt lat="46.95338" lon="4.63557">
        <ele>329.638465</ele>
        <time>2022-05-26T21:57:56.351Z</time>
      </trkpt>
      <trkpt lat="46.95359" lon="4.63583">
        <ele>329.759104</ele>
        <time>2022-05-26T21:58:25.030Z</time>
      </trkpt>
      <trkpt lat="46.95377" lon="4.63594">
        <ele>329.84293</ele>
        <time>2022-05-26T21:58:44.716Z</time>
      </trkpt>
      <trkpt lat="46.95369" lon="4.63614">
        <ele>329.911864</ele>
        <time>2022-05-26T21:59:00.945Z</time>
      </trkpt>
      <trkpt lat="46.95397" lon="4.63641">
        <ele>330.059583</ele>
        <time>2022-05-26T21:59:35.237Z</time>
      </trkpt>
      <trkpt lat="46.95399" lon="4.63649">
        <ele>330.095143</ele>
        <time>2022-05-26T21:59:41.054Z</time>
      </trkpt>
      <trkpt lat="46.95399" lon="4.63651">
        <ele>330.105518</ele>
        <time>2022-05-26T21:59:42.413Z</time>
      </trkpt>
      <trkpt lat="46.95397" lon="4.63658">
        <ele>330.142504</ele>
        <time>2022-05-26T21:59:47.519Z</time>
      </trkpt>
      <trkpt lat="46.95395" lon="4.63664">
        <ele>330.17829</ele>
        <time>2022-05-26T21:59:52.464Z</time>
      </trkpt>
      <trkpt lat="46.95379" lon="4.63718">
        <ele>330.468246</ele>
        <time>2022-05-26T22:00:32.817Z</time>
      </trkpt>
      <trkpt lat="46.95377" lon="4.63731">
        <ele>330.533658</ele>
        <time>2022-05-26T22:00:42.080Z</time>
      </trkpt>
      <trkpt lat="46.95483" lon="4.63789">
        <ele>331.359575</ele>
        <time>2022-05-26T22:02:38.952Z</time>
      </trkpt>
      <trkpt lat="46.95488" lon="4.6381">
        <ele>331.670859</ele>
        <time>2022-05-26T22:02:54.896Z</time>
      </trkpt>
      <trkpt lat="46.95488" lon="4.63847">
        <ele>332.250159</ele>
        <time>2022-05-26T22:03:21.544Z</time>
      </trkpt>
      <trkpt lat="46.95571" lon="4.63905">
        <ele>334.355841</ele>
        <time>2022-05-26T22:05:01.185Z</time>
      </trkpt>
      <trkpt lat="46.95662" lon="4.64">
        <ele>337.312435</ele>
        <time>2022-05-26T22:07:05.260Z</time>
      </trkpt>
      <trkpt lat="46.95714" lon="4.64046">
        <ele>339.100822</ele>
        <time>2022-05-26T22:08:12.552Z</time>
      </trkpt>
      <trkpt lat="46.9574" lon="4.64062">
        <ele>339.929766</ele>
        <time>2022-05-26T22:08:43.551Z</time>
      </trkpt>
      <trkpt lat="46.95799" lon="4.64124">
        <ele>341.54663</ele>
        <time>2022-05-26T22:10:03.288Z</time>
      </trkpt>
      <trkpt lat="46.95843" lon="4.64199">
        <ele>342.71725</ele>
        <time>2022-05-26T22:11:15.357Z</time>
      </trkpt>
      <trkpt lat="46.95878" lon="4.64227">
        <ele>343.416832</ele>
        <time>2022-05-26T22:11:57.155Z</time>
      </trkpt>
      <trkpt lat="46.95982" lon="4.64275">
        <ele>344.178623</ele>
        <time>2022-05-26T22:13:47.860Z</time>
      </trkpt>
      <trkpt lat="46.96004" lon="4.64226">
        <ele>344.314626</ele>
        <time>2022-05-26T22:14:28.452Z</time>
      </trkpt>
      <trkpt lat="46.96012" lon="4.64212">
        <ele>344.356542</ele>
        <time>2022-05-26T22:14:41.078Z</time>
      </trkpt>
      <trkpt lat="46.96053" lon="4.64238">
        <ele>344.505862</ele>
        <time>2022-05-26T22:15:25.720Z</time>
      </trkpt>
      <trkpt lat="46.96112" lon="4.64238">
        <ele>345.157052</ele>
        <time>2022-05-26T22:16:24.884Z</time>
      </trkpt>
      <trkpt lat="46.96138" lon="4.64262">
        <ele>345.508244</ele>
        <time>2022-05-26T22:16:56.517Z</time>
      </trkpt>
      <trkpt lat="46.96155" lon="4.6427">
        <ele>345.713477</ele>
        <time>2022-05-26T22:17:15.095Z</time>
      </trkpt>
      <trkpt lat="46.96211" lon="4.64251">
        <ele>346.375491</ele>
        <time>2022-05-26T22:18:16.709Z</time>
      </trkpt>
      <trkpt lat="46.96203" lon="4.64235">
        <ele>346.529179</ele>
        <time>2022-05-26T22:18:30.691Z</time>
      </trkpt>
      <trkpt lat="46.96244" lon="4.64232">
        <ele>347.731764</ele>
        <time>2022-05-26T22:19:15.155Z</time>
      </trkpt>
      <trkpt lat="46.96285" lon="4.64239">
        <ele>349.069496</ele>
        <time>2022-05-26T22:20:02.174Z</time>
      </trkpt>
      <trkpt lat="46.96314" lon="4.6425">
        <ele>349.999446</ele>
        <time>2022-05-26T22:20:34.420Z</time>
      </trkpt>
      <trkpt lat="46.9635" lon="4.64276">
        <ele>351.288597</ele>
        <time>2022-05-26T22:21:20.657Z</time>
      </trkpt>
      <trkpt lat="46.96348" lon="4.64341">
        <ele>352.735094</ele>
        <time>2022-05-26T22:22:11.135Z</time>
      </trkpt>
      <trkpt lat="46.96408" lon="4.6433">
        <ele>354.832794</ele>
        <time>2022-05-26T22:23:18.376Z</time>
      </trkpt>
      <trkpt lat="46.96432" lon="4.64367">
        <ele>356.033884</ele>
        <time>2022-05-26T22:23:57.453Z</time>
      </trkpt>
      <trkpt lat="46.96473" lon="4.64376">
        <ele>357.505308</ele>
        <time>2022-05-26T22:24:44.786Z</time>
      </trkpt>
      <trkpt lat="46.96684" lon="4.64388">
        <ele>362.822784</ele>
        <time>2022-05-26T22:28:36.739Z</time>
      </trkpt>
      <trkpt lat="46.96725" lon="4.64398">
        <ele>362.836288</ele>
        <time>2022-05-26T22:29:19.128Z</time>
      </trkpt>
      <trkpt lat="46.96717" lon="4.64433">
        <ele>362.844493</ele>
        <time>2022-05-26T22:29:44.397Z</time>
      </trkpt>
      <trkpt lat="46.96725" lon="4.64398">
        <ele>362.852698</ele>
        <time>2022-05-26T22:30:10.403Z</time>
      </trkpt>
      <trkpt lat="46.96731" lon="4.64358">
        <ele>362.861952</ele>
        <time>2022-05-26T22:30:39.133Z</time>
      </trkpt>
      <trkpt lat="46.9673" lon="4.64355">
        <ele>362.862502</ele>
        <time>2022-05-26T22:30:40.876Z</time>
      </trkpt>
      <trkpt lat="46.96727" lon="4.64337">
        <ele>362.866729</ele>
        <time>2022-05-26T22:30:54.204Z</time>
      </trkpt>
      <trkpt lat="46.96717" lon="4.64298">
        <ele>362.876081</ele>
        <time>2022-05-26T22:31:23.334Z</time>
      </trkpt>
      <trkpt lat="46.96712" lon="4.64284">
        <ele>362.879642</ele>
        <time>2022-05-26T22:31:35.011Z</time>
      </trkpt>
      <trkpt lat="46.96729" lon="4.64271">
        <ele>363.555829</ele>
        <time>2022-05-26T22:31:54.502Z</time>
      </trkpt>
      <trkpt lat="46.96748" lon="4.64273">
        <ele>364.471122</ele>
        <time>2022-05-26T22:32:15.439Z</time>
      </trkpt>
      <trkpt lat="46.96808" lon="4.64287">
        <ele>367.46848</ele>
        <time>2022-05-26T22:33:21.781Z</time>
      </trkpt>
      <trkpt lat="46.96816" lon="4.64206">
        <ele>370.186946</ele>
        <time>2022-05-26T22:34:29.660Z</time>
      </trkpt>
      <trkpt lat="46.96827" lon="4.64138">
        <ele>374.335385</ele>
        <time>2022-05-26T22:35:33.149Z</time>
      </trkpt>
      <trkpt lat="46.96845" lon="4.64099">
        <ele>379.077356</ele>
        <time>2022-05-26T22:36:19.373Z</time>
      </trkpt>
      <trkpt lat="46.96864" lon="4.64041">
        <ele>385.600025</ele>
        <time>2022-05-26T22:37:33.542Z</time>
      </trkpt>
      <trkpt lat="46.96926" lon="4.6399">
        <ele>396.326308</ele>
        <time>2022-05-26T22:39:44.381Z</time>
      </trkpt>
      <trkpt lat="46.96969" lon="4.63936">
        <ele>406.397343</ele>
        <time>2022-05-26T22:41:22.432Z</time>
      </trkpt>
      <trkpt lat="46.96992" lon="4.63881">
        <ele>414.770933</ele>
        <time>2022-05-26T22:42:45.202Z</time>
      </trkpt>
      <trkpt lat="46.9705" lon="4.6383">
        <ele>427.49918</ele>
        <time>2022-05-26T22:45:05.392Z</time>
      </trkpt>
      <trkpt lat="46.97081" lon="4.63787">
        <ele>435.067638</ele>
        <time>2022-05-26T22:46:25.577Z</time>
      </trkpt>
      <trkpt lat="46.97096" lon="4.6378">
        <ele>437.424653</ele>
        <time>2022-05-26T22:46:55.288Z</time>
      </trkpt>
      <trkpt lat="46.9718" lon="4.63769">
        <ele>449.889607</ele>
        <time>2022-05-26T22:49:05.896Z</time>
      </trkpt>
      <trkpt lat="46.97228" lon="4.6374">
        <ele>457.638641</ele>
        <time>2022-05-26T22:50:21.008Z</time>
      </trkpt>
      <trkpt lat="46.97256" lon="4.63751">
        <ele>460.621312</ele>
        <time>2022-05-26T22:51:15.917Z</time>
      </trkpt>
      <trkpt lat="46.97263" lon="4.63744">
        <ele>461.224364</ele>
        <time>2022-05-26T22:51:26.114Z</time>
      </trkpt>
      <trkpt lat="46.97267" lon="4.63732">
        <ele>461.878817</ele>
        <time>2022-05-26T22:51:37.444Z</time>
      </trkpt>
      <trkpt lat="46.97269" lon="4.63718">
        <ele>462.598502</ele>
        <time>2022-05-26T22:51:55.572Z</time>
      </trkpt>
      <trkpt lat="46.97265" lon="4.63689">
        <ele>464.040056</ele>
        <time>2022-05-26T22:52:21.991Z</time>
      </trkpt>
      <trkpt lat="46.97272" lon="4.63669">
        <ele>465.11282</ele>
        <time>2022-05-26T22:52:42.030Z</time>
      </trkpt>
      <trkpt lat="46.97299" lon="4.63656">
        <ele>467.149397</ele>
        <time>2022-05-26T22:53:15.702Z</time>
      </trkpt>
      <trkpt lat="46.97332" lon="4.6363">
        <ele>469.834263</ele>
        <time>2022-05-26T22:54:00.658Z</time>
      </trkpt>
      <trkpt lat="46.97339" lon="4.63612">
        <ele>470.838528</ele>
        <time>2022-05-26T22:54:20.506Z</time>
      </trkpt>
      <trkpt lat="46.97391" lon="4.63637">
        <ele>469.987892</ele>
        <time>2022-05-26T22:55:18.974Z</time>
      </trkpt>
      <trkpt lat="46.97402" lon="4.63654">
        <ele>468.847773</ele>
        <time>2022-05-26T22:55:37.178Z</time>
      </trkpt>
      <trkpt lat="46.97425" lon="4.63675">
        <ele>466.934582</ele>
        <time>2022-05-26T22:56:08.869Z</time>
      </trkpt>
      <trkpt lat="46.97453" lon="4.63678">
        <ele>465.00333</ele>
        <time>2022-05-26T22:56:40.876Z</time>
      </trkpt>
      <trkpt lat="46.97475" lon="4.63691">
        <ele>463.383007</ele>
        <time>2022-05-26T22:57:06.735Z</time>
      </trkpt>
      <trkpt lat="46.97515" lon="4.63723">
        <ele>460.2167</ele>
        <time>2022-05-26T22:58:05.800Z</time>
      </trkpt>
      <trkpt lat="46.97559" lon="4.63796">
        <ele>452.118476</ele>
        <time>2022-05-26T22:59:30.611Z</time>
      </trkpt>
      <trkpt lat="46.97596" lon="4.63899">
        <ele>442.060752</ele>
        <time>2022-05-26T23:01:11.925Z</time>
      </trkpt>
      <trkpt lat="46.97606" lon="4.63944">
        <ele>438.012685</ele>
        <time>2022-05-26T23:01:49.962Z</time>
      </trkpt>
      <trkpt lat="46.97607" lon="4.63984">
        <ele>436.325783</ele>
        <time>2022-05-26T23:02:21.647Z</time>
      </trkpt>
      <trkpt lat="46.97601" lon="4.64024">
        <ele>435.17628</ele>
        <time>2022-05-26T23:02:53.545Z</time>
      </trkpt>
      <trkpt lat="46.97602" lon="4.64046">
        <ele>434.57264</ele>
        <time>2022-05-26T23:03:11.155Z</time>
      </trkpt>
      <trkpt lat="46.97608" lon="4.64087">
        <ele>433.391199</ele>
        <time>2022-05-26T23:03:42.350Z</time>
      </trkpt>
      <trkpt lat="46.97623" lon="4.6412">
        <ele>432.282382</ele>
        <time>2022-05-26T23:04:10.352Z</time>
      </trkpt>
      <trkpt lat="46.9766" lon="4.64156">
        <ele>430.485621</ele>
        <time>2022-05-26T23:04:54.603Z</time>
      </trkpt>
      <trkpt lat="46.97704" lon="4.64185">
        <ele>429.988179</ele>
        <time>2022-05-26T23:05:43.058Z</time>
      </trkpt>
      <trkpt lat="46.97738" lon="4.64194">
        <ele>430.208535</ele>
        <time>2022-05-26T23:06:20.596Z</time>
      </trkpt>
      <trkpt lat="46.97809" lon="4.64177">
        <ele>430.658424</ele>
        <time>2022-05-26T23:07:37.185Z</time>
      </trkpt>
      <trkpt lat="46.97853" lon="4.642">
        <ele>430.640389</ele>
        <time>2022-05-26T23:08:25.745Z</time>
      </trkpt>
      <trkpt lat="46.97955" lon="4.64174">
        <ele>425.012577</ele>
        <time>2022-05-26T23:10:17.685Z</time>
      </trkpt>
      <trkpt lat="46.98004" lon="4.64173">
        <ele>422.31906</ele>
        <time>2022-05-26T23:11:14.332Z</time>
      </trkpt>
      <trkpt lat="46.98023" lon="4.64172">
        <ele>421.253593</ele>
        <time>2022-05-26T23:11:38.726Z</time>
      </trkpt>
      <trkpt lat="46.98038" lon="4.64186">
        <ele>419.982845</ele>
        <time>2022-05-26T23:11:59.508Z</time>
      </trkpt>
      <trkpt lat="46.98047" lon="4.64207">
        <ele>418.738793</ele>
        <time>2022-05-26T23:12:19.860Z</time>
      </trkpt>
      <trkpt lat="46.98052" lon="4.64251">
        <ele>416.384789</ele>
        <time>2022-05-26T23:12:56.449Z</time>
      </trkpt>
      <trkpt lat="46.98047" lon="4.64307">
        <ele>413.454849</ele>
        <time>2022-05-26T23:13:41.643Z</time>
      </trkpt>
      <trkpt lat="46.98016" lon="4.64382">
        <ele>408.885377</ele>
        <time>2022-05-26T23:14:50.097Z</time>
      </trkpt>
      <trkpt lat="46.98036" lon="4.64371">
        <ele>407.419968</ele>
        <time>2022-05-26T23:15:13.133Z</time>
      </trkpt>
      <trkpt lat="46.98072" lon="4.64357">
        <ele>407.45827</ele>
        <time>2022-05-26T23:15:52.531Z</time>
      </trkpt>
      <trkpt lat="46.98132" lon="4.6437">
        <ele>407.521931</ele>
        <time>2022-05-26T23:16:55.954Z</time>
      </trkpt>
      <trkpt lat="46.98182" lon="4.64353">
        <ele>407.57428</ele>
        <time>2022-05-26T23:17:52.294Z</time>
      </trkpt>
      <trkpt lat="46.98197" lon="4.64361">
        <ele>407.591528</ele>
        <time>2022-05-26T23:18:11.879Z</time>
      </trkpt>
      <trkpt lat="46.9825" lon="4.64424">
        <ele>410.379861</ele>
        <time>2022-05-26T23:19:29.868Z</time>
      </trkpt>
      <trkpt lat="46.98305" lon="4.64497">
        <ele>414.058694</ele>
        <time>2022-05-26T23:20:55.831Z</time>
      </trkpt>
      <trkpt lat="46.98314" lon="4.64491">
        <ele>414.582015</ele>
        <time>2022-05-26T23:21:08.321Z</time>
      </trkpt>
      <trkpt lat="46.98383" lon="4.64556">
        <ele>419.440517</ele>
        <time>2022-05-26T23:22:47.818Z</time>
      </trkpt>
      <trkpt lat="46.98414" lon="4.64566">
        <ele>421.637424</ele>
        <time>2022-05-26T23:23:27.150Z</time>
      </trkpt>
      <trkpt lat="46.98436" lon="4.64605">
        <ele>423.986011</ele>
        <time>2022-05-26T23:24:09.048Z</time>
      </trkpt>
      <trkpt lat="46.98467" lon="4.64624">
        <ele>426.333033</ele>
        <time>2022-05-26T23:24:50.802Z</time>
      </trkpt>
      <trkpt lat="46.98494" lon="4.64652">
        <ele>428.585011</ele>
        <time>2022-05-26T23:25:31.583Z</time>
      </trkpt>
      <trkpt lat="46.98563" lon="4.64763">
        <ele>438.361482</ele>
        <time>2022-05-26T23:27:45.386Z</time>
      </trkpt>
      <trkpt lat="46.98572" lon="4.64788">
        <ele>440.23658</ele>
        <time>2022-05-26T23:28:10.872Z</time>
      </trkpt>
      <trkpt lat="46.98581" lon="4.64866">
        <ele>445.379762</ele>
        <time>2022-05-26T23:29:25.005Z</time>
      </trkpt>
      <trkpt lat="46.98581" lon="4.64868">
        <ele>445.529368</ele>
        <time>2022-05-26T23:29:27.001Z</time>
      </trkpt>
      <trkpt lat="46.98589" lon="4.64888">
        <ele>447.141534</ele>
        <time>2022-05-26T23:29:49.486Z</time>
      </trkpt>
      <trkpt lat="46.98581" lon="4.6491">
        <ele>448.889746</ele>
        <time>2022-05-26T23:30:16.866Z</time>
      </trkpt>
      <trkpt lat="46.98577" lon="4.64955">
        <ele>452.059343</ele>
        <time>2022-05-26T23:30:58.757Z</time>
      </trkpt>
      <trkpt lat="46.98566" lon="4.64967">
        <ele>453.466128</ele>
        <time>2022-05-26T23:31:16.170Z</time>
      </trkpt>
      <trkpt lat="46.98565" lon="4.64979">
        <ele>454.346237</ele>
        <time>2022-05-26T23:31:27.936Z</time>
      </trkpt>
      <trkpt lat="46.98567" lon="4.65049">
        <ele>459.251771</ele>
        <time>2022-05-26T23:32:33.061Z</time>
      </trkpt>
      <trkpt lat="46.98572" lon="4.65085">
        <ele>461.804528</ele>
        <time>2022-05-26T23:33:06.325Z</time>
      </trkpt>
      <trkpt lat="46.98581" lon="4.65107">
        <ele>463.596608</ele>
        <time>2022-05-26T23:33:31.634Z</time>
      </trkpt>
      <trkpt lat="46.98572" lon="4.65085">
        <ele>465.090847</ele>
        <time>2022-05-26T23:33:53.495Z</time>
      </trkpt>
      <trkpt lat="46.98549" lon="4.65057">
        <ele>466.841132</ele>
        <time>2022-05-26T23:34:30.357Z</time>
      </trkpt>
      <trkpt lat="46.98522" lon="4.64991">
        <ele>469.9362</ele>
        <time>2022-05-26T23:35:33.379Z</time>
      </trkpt>
      <trkpt lat="46.98503" lon="4.64982">
        <ele>471.124494</ele>
        <time>2022-05-26T23:35:56.930Z</time>
      </trkpt>
      <trkpt lat="46.98466" lon="4.64944">
        <ele>473.78064</ele>
        <time>2022-05-26T23:36:45.383Z</time>
      </trkpt>
      <trkpt lat="46.9837" lon="4.64881">
        <ele>482.404638</ele>
        <time>2022-05-26T23:38:55.202Z</time>
      </trkpt>
      <trkpt lat="46.98317" lon="4.64872">
        <ele>487.238725</ele>
        <time>2022-05-26T23:40:07.176Z</time>
      </trkpt>
      <trkpt lat="46.98399" lon="4.64969">
        <ele>497.494577</ele>
        <time>2022-05-26T23:42:38.702Z</time>
      </trkpt>
      <trkpt lat="46.98446" lon="4.65039">
        <ele>504.279955</ele>
        <time>2022-05-26T23:44:11.850Z</time>
      </trkpt>
      <trkpt lat="46.98465" lon="4.65095">
        <ele>508.650699</ele>
        <time>2022-05-26T23:45:07.594Z</time>
      </trkpt>
      <trkpt lat="46.9846" lon="4.65157">
        <ele>510.40791</ele>
        <time>2022-05-26T23:45:58.690Z</time>
      </trkpt>
      <trkpt lat="46.98469" lon="4.65205">
        <ele>511.01217</ele>
        <time>2022-05-26T23:46:36.971Z</time>
      </trkpt>
      <trkpt lat="46.98501" lon="4.65252">
        <ele>511.817666</ele>
        <time>2022-05-26T23:47:23.519Z</time>
      </trkpt>
      <trkpt lat="46.98543" lon="4.65331">
        <ele>513.038726</ele>
        <time>2022-05-26T23:48:34.032Z</time>
      </trkpt>
      <trkpt lat="46.98565" lon="4.65358">
        <ele>512.71786</ele>
        <time>2022-05-26T23:49:04.065Z</time>
      </trkpt>
      <trkpt lat="46.98627" lon="4.65358">
        <ele>511.899233</ele>
        <time>2022-05-26T23:50:08.166Z</time>
      </trkpt>
      <trkpt lat="46.98685" lon="4.65402">
        <ele>511.038982</ele>
        <time>2022-05-26T23:51:15.764Z</time>
      </trkpt>
      <trkpt lat="46.98718" lon="4.6552">
        <ele>512.060149</ele>
        <time>2022-05-26T23:52:43.663Z</time>
      </trkpt>
      <trkpt lat="46.98737" lon="4.65583">
        <ele>513.10579</ele>
        <time>2022-05-26T23:53:35.979Z</time>
      </trkpt>
      <trkpt lat="46.98756" lon="4.65646">
        <ele>514.139972</ele>
        <time>2022-05-26T23:54:29.449Z</time>
      </trkpt>
      <trkpt lat="46.98731" lon="4.6567">
        <ele>514.950967</ele>
        <time>2022-05-26T23:55:04.464Z</time>
      </trkpt>
      <trkpt lat="46.98697" lon="4.65736">
        <ele>517.646503</ele>
        <time>2022-05-26T23:56:10.044Z</time>
      </trkpt>
      <trkpt lat="46.98625" lon="4.65789">
        <ele>521.512115</ele>
        <time>2022-05-26T23:57:45.288Z</time>
      </trkpt>
      <trkpt lat="46.98599" lon="4.65821">
        <ele>523.163662</ele>
        <time>2022-05-26T23:58:25.752Z</time>
      </trkpt>
      <trkpt lat="46.98587" lon="4.65853">
        <ele>524.004594</ele>
        <time>2022-05-26T23:58:54.429Z</time>
      </trkpt>
      <trkpt lat="46.98532" lon="4.65958">
        <ele>526.884606</ele>
        <time>2022-05-27T00:00:35.095Z</time>
      </trkpt>
      <trkpt lat="46.9847" lon="4.6594">
        <ele>528.881916</ele>
        <time>2022-05-27T00:01:43.585Z</time>
      </trkpt>
      <trkpt lat="46.98371" lon="4.66006">
        <ele>530.990317</ele>
        <time>2022-05-27T00:03:39.495Z</time>
      </trkpt>
      <trkpt lat="46.98304" lon="4.66041">
        <ele>532.316738</ele>
        <time>2022-05-27T00:04:54.990Z</time>
      </trkpt>
      <trkpt lat="46.98051" lon="4.66096">
        <ele>535.506297</ele>
        <time>2022-05-27T00:09:25.312Z</time>
      </trkpt>
      <trkpt lat="46.98015" lon="4.66112">
        <ele>535.667159</ele>
        <time>2022-05-27T00:10:02.827Z</time>
      </trkpt>
      <trkpt lat="46.97908" lon="4.66098">
        <ele>536.430629</ele>
        <time>2022-05-27T00:11:50.659Z</time>
      </trkpt>
      <trkpt lat="46.97885" lon="4.66118">
        <ele>536.77771</ele>
        <time>2022-05-27T00:12:18.034Z</time>
      </trkpt>
      <trkpt lat="46.97882" lon="4.66088">
        <ele>537.04059</ele>
        <time>2022-05-27T00:12:39.026Z</time>
      </trkpt>
      <trkpt lat="46.97885" lon="4.66118">
        <ele>537.303469</ele>
        <time>2022-05-27T00:13:01.161Z</time>
      </trkpt>
      <trkpt lat="46.97997" lon="4.671">
        <ele>554.455847</ele>
        <time>2022-05-27T00:25:29.495Z</time>
      </trkpt>
      <trkpt lat="46.98011" lon="4.67223">
        <ele>555.555975</ele>
        <time>2022-05-27T00:26:57.482Z</time>
      </trkpt>
      <trkpt lat="46.9794" lon="4.67249">
        <ele>555.197845</ele>
        <time>2022-05-27T00:28:12.178Z</time>
      </trkpt>
      <trkpt lat="46.97926" lon="4.67239">
        <ele>554.933994</ele>
        <time>2022-05-27T00:28:28.130Z</time>
      </trkpt>
      <trkpt lat="46.97882" lon="4.67255">
        <ele>554.16598</ele>
        <time>2022-05-27T00:29:14.510Z</time>
      </trkpt>
      <trkpt lat="46.97876" lon="4.67257">
        <ele>554.064184</ele>
        <time>2022-05-27T00:29:20.795Z</time>
      </trkpt>
      <trkpt lat="46.97869" lon="4.67274">
        <ele>553.833357</ele>
        <time>2022-05-27T00:29:35.181Z</time>
      </trkpt>
      <trkpt lat="46.97881" lon="4.67288">
        <ele>553.577145</ele>
        <time>2022-05-27T00:29:51.135Z</time>
      </trkpt>
      <trkpt lat="46.97901" lon="4.67293">
        <ele>553.230151</ele>
        <time>2022-05-27T00:30:13.035Z</time>
      </trkpt>
      <trkpt lat="46.9792" lon="4.67421">
        <ele>551.838293</ele>
        <time>2022-05-27T00:31:47.410Z</time>
      </trkpt>
      <trkpt lat="46.97898" lon="4.67487">
        <ele>551.07435</ele>
        <time>2022-05-27T00:32:39.912Z</time>
      </trkpt>
      <trkpt lat="46.97952" lon="4.67509">
        <ele>550.23693</ele>
        <time>2022-05-27T00:33:36.079Z</time>
      </trkpt>
      <trkpt lat="46.98164" lon="4.67911">
        <ele>556.629609</ele>
        <time>2022-05-27T00:39:50.882Z</time>
      </trkpt>
      <trkpt lat="46.9834" lon="4.68257">
        <ele>554.502429</ele>
        <time>2022-05-27T00:44:49.148Z</time>
      </trkpt>
      <trkpt lat="46.98365" lon="4.68229">
        <ele>553.421723</ele>
        <time>2022-05-27T00:45:23.962Z</time>
      </trkpt>
      <trkpt lat="46.9834" lon="4.68257">
        <ele>552.341017</ele>
        <time>2022-05-27T00:45:59.739Z</time>
      </trkpt>
      <trkpt lat="46.98186" lon="4.68606">
        <ele>528.178572</ele>
        <time>2022-05-27T00:51:42.467Z</time>
      </trkpt>
      <trkpt lat="46.98209" lon="4.6864">
        <ele>526.205931</ele>
        <time>2022-05-27T00:52:18.290Z</time>
      </trkpt>
      <trkpt lat="46.98277" lon="4.68701">
        <ele>522.357005</ele>
        <time>2022-05-27T00:53:41.318Z</time>
      </trkpt>
      <trkpt lat="46.98344" lon="4.68724">
        <ele>522.418407</ele>
        <time>2022-05-27T00:54:53.983Z</time>
      </trkpt>
      <trkpt lat="46.98406" lon="4.68723">
        <ele>522.473259</ele>
        <time>2022-05-27T00:55:56.724Z</time>
      </trkpt>
      <trkpt lat="46.9843" lon="4.6871">
        <ele>522.496032</ele>
        <time>2022-05-27T00:56:22.223Z</time>
      </trkpt>
      <trkpt lat="46.98553" lon="4.68601">
        <ele>520.447041</ele>
        <time>2022-05-27T00:58:49.941Z</time>
      </trkpt>
      <trkpt lat="46.98672" lon="4.6854">
        <ele>519.207695</ele>
        <time>2022-05-27T01:01:03.622Z</time>
      </trkpt>
      <trkpt lat="46.9871" lon="4.68505">
        <ele>518.898229</ele>
        <time>2022-05-27T01:01:49.411Z</time>
      </trkpt>
      <trkpt lat="46.98787" lon="4.68418">
        <ele>520.734643</ele>
        <time>2022-05-27T01:03:33.207Z</time>
      </trkpt>
      <trkpt lat="46.98794" lon="4.6842">
        <ele>521.099776</ele>
        <time>2022-05-27T01:03:40.784Z</time>
      </trkpt>
      <trkpt lat="46.98812" lon="4.68398">
        <ele>522.234594</ele>
        <time>2022-05-27T01:04:07.535Z</time>
      </trkpt>
      <trkpt lat="46.98813" lon="4.68396">
        <ele>522.312074</ele>
        <time>2022-05-27T01:04:10.729Z</time>
      </trkpt>
      <trkpt lat="46.98853" lon="4.68284">
        <ele>526.5625</ele>
        <time>2022-05-27T01:05:55.097Z</time>
      </trkpt>
      <trkpt lat="46.98891" lon="4.68197">
        <ele>529.367078</ele>
        <time>2022-05-27T01:07:25.843Z</time>
      </trkpt>
      <trkpt lat="46.98946" lon="4.68161">
        <ele>531.558137</ele>
        <time>2022-05-27T01:08:36.212Z</time>
      </trkpt>
      <trkpt lat="46.98952" lon="4.6815">
        <ele>531.937864</ele>
        <time>2022-05-27T01:08:47.936Z</time>
      </trkpt>
      <trkpt lat="46.98963" lon="4.68108">
        <ele>533.059122</ele>
        <time>2022-05-27T01:09:21.435Z</time>
      </trkpt>
      <trkpt lat="46.98969" lon="4.68105">
        <ele>533.298046</ele>
        <time>2022-05-27T01:09:28.571Z</time>
      </trkpt>
      <trkpt lat="46.98966" lon="4.68085">
        <ele>533.804245</ele>
        <time>2022-05-27T01:09:42.856Z</time>
      </trkpt>
      <trkpt lat="46.98969" lon="4.68105">
        <ele>533.33114</ele>
        <time>2022-05-27T01:09:57.157Z</time>
      </trkpt>
      <trkpt lat="46.98997" lon="4.68261">
        <ele>525.531876</ele>
        <time>2022-05-27T01:12:00.537Z</time>
      </trkpt>
      <trkpt lat="46.98996" lon="4.68279">
        <ele>524.633224</ele>
        <time>2022-05-27T01:12:16.438Z</time>
      </trkpt>
      <trkpt lat="46.98983" lon="4.68337">
        <ele>521.720452</ele>
        <time>2022-05-27T01:13:06.363Z</time>
      </trkpt>
      <trkpt lat="46.98967" lon="4.6838">
        <ele>518.777826</ele>
        <time>2022-05-27T01:13:48.244Z</time>
      </trkpt>
      <trkpt lat="46.98941" lon="4.68413">
        <ele>515.72778</ele>
        <time>2022-05-27T01:14:29.672Z</time>
      </trkpt>
      <trkpt lat="46.98901" lon="4.68525">
        <ele>507.882985</ele>
        <time>2022-05-27T01:16:12.629Z</time>
      </trkpt>
      <trkpt lat="46.989" lon="4.68586">
        <ele>504.703064</ele>
        <time>2022-05-27T01:16:58.526Z</time>
      </trkpt>
      <trkpt lat="46.98896" lon="4.68624">
        <ele>504.085004</ele>
        <time>2022-05-27T01:17:27.724Z</time>
      </trkpt>
      <trkpt lat="46.98912" lon="4.68699">
        <ele>502.842737</ele>
        <time>2022-05-27T01:18:25.375Z</time>
      </trkpt>
      <trkpt lat="46.98938" lon="4.68723">
        <ele>502.132686</ele>
        <time>2022-05-27T01:18:56.893Z</time>
      </trkpt>
      <trkpt lat="46.98959" lon="4.68765">
        <ele>501.295515</ele>
        <time>2022-05-27T01:19:33.337Z</time>
      </trkpt>
      <trkpt lat="46.98976" lon="4.68829">
        <ele>501.243122</ele>
        <time>2022-05-27T01:20:21.876Z</time>
      </trkpt>
      <trkpt lat="46.98987" lon="4.68849">
        <ele>501.629009</ele>
        <time>2022-05-27T01:20:40.844Z</time>
      </trkpt>
      <trkpt lat="46.99015" lon="4.68968">
        <ele>503.528419</ele>
        <time>2022-05-27T01:22:13.623Z</time>
      </trkpt>
      <trkpt lat="46.99057" lon="4.69085">
        <ele>505.951027</ele>
        <time>2022-05-27T01:23:53.361Z</time>
      </trkpt>
      <trkpt lat="46.99058" lon="4.69119">
        <ele>506.725788</ele>
        <time>2022-05-27T01:24:19.519Z</time>
      </trkpt>
      <trkpt lat="46.99081" lon="4.69173">
        <ele>508.185286</ele>
        <time>2022-05-27T01:25:10.958Z</time>
      </trkpt>
      <trkpt lat="46.99111" lon="4.69218">
        <ele>509.626884</ele>
        <time>2022-05-27T01:26:00.754Z</time>
      </trkpt>
      <trkpt lat="46.99168" lon="4.69273">
        <ele>510.881564</ele>
        <time>2022-05-27T01:27:11.633Z</time>
      </trkpt>
      <trkpt lat="46.99214" lon="4.69303">
        <ele>511.061438</ele>
        <time>2022-05-27T01:28:04.320Z</time>
      </trkpt>
      <trkpt lat="46.99227" lon="4.69356">
        <ele>511.198094</ele>
        <time>2022-05-27T01:28:42.816Z</time>
      </trkpt>
      <trkpt lat="46.99225" lon="4.69369">
        <ele>511.229925</ele>
        <time>2022-05-27T01:28:52.239Z</time>
      </trkpt>
      <trkpt lat="46.99245" lon="4.69391">
        <ele>511.31856</ele>
        <time>2022-05-27T01:29:17.550Z</time>
      </trkpt>
      <trkpt lat="46.99292" lon="4.69434">
        <ele>511.407111</ele>
        <time>2022-05-27T01:30:14.696Z</time>
      </trkpt>
      <trkpt lat="46.99312" lon="4.6944">
        <ele>511.410974</ele>
        <time>2022-05-27T01:30:36.235Z</time>
      </trkpt>
      <trkpt lat="46.99334" lon="4.69495">
        <ele>511.418949</ele>
        <time>2022-05-27T01:31:22.042Z</time>
      </trkpt>
      <trkpt lat="46.99347" lon="4.69507">
        <ele>511.421819</ele>
        <time>2022-05-27T01:31:37.914Z</time>
      </trkpt>
      <trkpt lat="46.9935" lon="4.69521">
        <ele>511.423627</ele>
        <time>2022-05-27T01:31:48.449Z</time>
      </trkpt>
      <trkpt lat="46.9937" lon="4.69556">
        <ele>511.429405</ele>
        <time>2022-05-27T01:32:22.198Z</time>
      </trkpt>
      <trkpt lat="46.99389" lon="4.69611">
        <ele>511.944107</ele>
        <time>2022-05-27T01:33:08.555Z</time>
      </trkpt>
      <trkpt lat="46.99404" lon="4.69644">
        <ele>512.777696</ele>
        <time>2022-05-27T01:33:37.756Z</time>
      </trkpt>
      <trkpt lat="46.99409" lon="4.69656">
        <ele>513.079244</ele>
        <time>2022-05-27T01:33:48.752Z</time>
      </trkpt>
      <trkpt lat="46.99429" lon="4.69686">
        <ele>513.993959</ele>
        <time>2022-05-27T01:34:21.248Z</time>
      </trkpt>
      <trkpt lat="46.9948" lon="4.69744">
        <ele>515.998695</ele>
        <time>2022-05-27T01:35:34.220Z</time>
      </trkpt>
      <trkpt lat="46.99473" lon="4.69754">
        <ele>516.304018</ele>
        <time>2022-05-27T01:35:44.023Z</time>
      </trkpt>
      <trkpt lat="46.99517" lon="4.6976">
        <ele>517.250332</ele>
        <time>2022-05-27T01:36:33.322Z</time>
      </trkpt>
      <trkpt lat="46.99533" lon="4.69751">
        <ele>517.39149</ele>
        <time>2022-05-27T01:36:52.270Z</time>
      </trkpt>
      <trkpt lat="46.99564" lon="4.69767">
        <ele>517.656033</ele>
        <time>2022-05-27T01:37:26.500Z</time>
      </trkpt>
      <trkpt lat="46.99598" lon="4.69802">
        <ele>517.997062</ele>
        <time>2022-05-27T01:38:09.570Z</time>
      </trkpt>
      <trkpt lat="46.9962" lon="4.69806">
        <ele>518.17667</ele>
        <time>2022-05-27T01:38:31.842Z</time>
      </trkpt>
      <trkpt lat="46.99696" lon="4.69793">
        <ele>517.951332</ele>
        <time>2022-05-27T01:39:49.550Z</time>
      </trkpt>
      <trkpt lat="46.99838" lon="4.69733">
        <ele>514.968746</ele>
        <time>2022-05-27T01:42:24.080Z</time>
      </trkpt>
      <trkpt lat="46.99865" lon="4.69721">
        <ele>513.763043</ele>
        <time>2022-05-27T01:42:54.121Z</time>
      </trkpt>
      <trkpt lat="46.9987" lon="4.69712">
        <ele>513.414746</ele>
        <time>2022-05-27T01:43:02.388Z</time>
      </trkpt>
      <trkpt lat="46.9988" lon="4.69694">
        <ele>512.707745</ele>
        <time>2022-05-27T01:43:19.260Z</time>
      </trkpt>
      <trkpt lat="46.99951" lon="4.69719">
        <ele>509.42495</ele>
        <time>2022-05-27T01:44:39.687Z</time>
      </trkpt>
      <trkpt lat="47.00075" lon="4.6979">
        <ele>506.836807</ele>
        <time>2022-05-27T01:47:07.136Z</time>
      </trkpt>
      <trkpt lat="47.00161" lon="4.6988">
        <ele>506.836807</ele>
        <time>2022-05-27T01:48:58.865Z</time>
      </trkpt>
      <trkpt lat="47.00188" lon="4.69916">
        <ele>506.836807</ele>
        <time>2022-05-27T01:49:34.842Z</time>
      </trkpt>
      <trkpt lat="47.00203" lon="4.69953">
        <ele>506.836807</ele>
        <time>2022-05-27T01:50:05.601Z</time>
      </trkpt>
    </trkseg>
  </trk>
</gpx>